<?xml version='1.0' encoding='utf-8'?>
<gpx xmlns="http://www.topografix.com/GPX/1/1" xmlns:om="http://www.oruxmaps.com/oruxmapsextensions/1/0" xmlns:xsi="http://www.w3.org/2001/XMLSchema-instance" creator="OruxMaps v.6.0.10 Donate" version="1.1" xsi:schemaLocation="http://www.topografix.com/GPX/1/1 http://www.topografix.com/GPX/1/1/gpx.xsd">
<metadata>
<name>2015-11-22 07:11</name>
<desc />
<link href="http://www.oruxmaps.com">
<text>OruxMaps</text>
</link>
<time>2015-11-22T05:11:05Z</time><bounds maxlat="31.1803702" maxlon="35.7707093" minlat="30.6541401" minlon="35.6102621" />
</metadata>
<trk>
<name>2015-11-22 07:11</name>
<desc>&lt;h1&gt;OruxMaps&lt;/h1&gt;&lt;br /&gt;&lt;hr align="center" width="480" style="height: 2px; width: 517px"/&gt;&lt;h2&gt;Name: 2015-11-22 07:11&lt;/h2&gt;&lt;br /&gt;&lt;p&gt;Start time: 11/22/2015 07:11&lt;/p&gt;&lt;p&gt;Finish time: 11/22/2015 18:52&lt;/p&gt;&lt;p&gt;Distance: 97.4km (11:40)&lt;/p&gt;&lt;p&gt;Moving time: 07:24&lt;/p&gt;&lt;p&gt;Average speed: 8.3km/h&lt;/p&gt;&lt;p&gt;Avg. Speed Mov.: 13.1km/h&lt;/p&gt;&lt;p&gt;Max. Speed: 65.4km/h&lt;/p&gt;&lt;p&gt;Minimum altitude: 410m&lt;/p&gt;&lt;p&gt;Maximum altitude: 1548m&lt;/p&gt;&lt;p&gt;Ascent speed: 579.7m/h&lt;/p&gt;&lt;p&gt;Descent speed: -726.6m/h&lt;/p&gt;&lt;p&gt;Elevation gain: 3220m&lt;/p&gt;&lt;p&gt;Elevation loss: -2814m&lt;/p&gt;&lt;p&gt;Ascent time: 05:33&lt;/p&gt;&lt;p&gt;Descent time: 03:52&lt;/p&gt;&lt;hr align="center" width="480" style="height: 2px; width: 517px"/&gt;</desc>
<type>Undefined</type>
<extensions>
<om:oruxmapsextensions>
<om:ext type="TYPE" subtype="0">0</om:ext>
</om:oruxmapsextensions>
</extensions>
<trkseg>
<trkpt lat="31.1800006" lon="35.7093524">
<ele>958.3</ele>
<time>2015-11-22T05:11:07Z</time>
</trkpt>
<trkpt lat="31.1799999" lon="35.7095657">
<ele>959.0</ele>
<time>2015-11-22T05:11:36Z</time>
</trkpt>
<trkpt lat="31.1798996" lon="35.7095404">
<ele>960.1</ele>
<time>2015-11-22T05:15:55Z</time>
</trkpt>
<trkpt lat="31.1803142" lon="35.7086197">
<ele>953.7</ele>
<time>2015-11-22T05:16:42Z</time>
</trkpt>
<trkpt lat="31.1803382" lon="35.7078355">
<ele>950.6</ele>
<time>2015-11-22T05:16:50Z</time>
</trkpt>
<trkpt lat="31.1798878" lon="35.7063228">
<ele>948.0</ele>
<time>2015-11-22T05:17:04Z</time>
</trkpt>
<trkpt lat="31.1797333" lon="35.7057980">
<ele>940.9</ele>
<time>2015-11-22T05:17:09Z</time>
</trkpt>
<trkpt lat="31.1797266" lon="35.7045554">
<ele>937.7</ele>
<time>2015-11-22T05:17:21Z</time>
</trkpt>
<trkpt lat="31.1795488" lon="35.7034949">
<ele>928.1</ele>
<time>2015-11-22T05:17:38Z</time>
</trkpt>
<trkpt lat="31.1794908" lon="35.7033086">
<ele>925.5</ele>
<time>2015-11-22T05:18:11Z</time>
</trkpt>
<trkpt lat="31.1794409" lon="35.7032481">
<ele>926.1</ele>
<time>2015-11-22T05:18:13Z</time>
</trkpt>
<trkpt lat="31.1791780" lon="35.7032018">
<ele>930.0</ele>
<time>2015-11-22T05:18:21Z</time>
</trkpt>
<trkpt lat="31.1792912" lon="35.7031396">
<ele>927.8</ele>
<time>2015-11-22T05:26:32Z</time>
</trkpt>
<trkpt lat="31.1773241" lon="35.7034427">
<ele>950.6</ele>
<time>2015-11-22T05:28:42Z</time>
</trkpt>
<trkpt lat="31.1771045" lon="35.7034337">
<ele>952.0</ele>
<time>2015-11-22T05:28:54Z</time>
</trkpt>
<trkpt lat="31.1746261" lon="35.7034609">
<ele>962.6</ele>
<time>2015-11-22T05:31:00Z</time>
</trkpt>
<trkpt lat="31.1744316" lon="35.7034201">
<ele>959.4</ele>
<time>2015-11-22T05:31:12Z</time>
</trkpt>
<trkpt lat="31.1729858" lon="35.7043641">
<ele>960.7</ele>
<time>2015-11-22T05:33:27Z</time>
</trkpt>
<trkpt lat="31.1726395" lon="35.7045042">
<ele>964.2</ele>
<time>2015-11-22T05:33:45Z</time>
</trkpt>
<trkpt lat="31.1711368" lon="35.7038701">
<ele>980.7</ele>
<time>2015-11-22T05:35:07Z</time>
</trkpt>
<trkpt lat="31.1706940" lon="35.7038590">
<ele>983.4</ele>
<time>2015-11-22T05:35:25Z</time>
</trkpt>
<trkpt lat="31.1692244" lon="35.7038522">
<ele>981.3</ele>
<time>2015-11-22T05:36:23Z</time>
</trkpt>
<trkpt lat="31.1689973" lon="35.7037783">
<ele>981.8</ele>
<time>2015-11-22T05:36:33Z</time>
</trkpt>
<trkpt lat="31.1677075" lon="35.7032785">
<ele>1010.9</ele>
<time>2015-11-22T05:37:48Z</time>
</trkpt>
<trkpt lat="31.1662530" lon="35.7028394">
<ele>1004.9</ele>
<time>2015-11-22T05:38:56Z</time>
</trkpt>
<trkpt lat="31.1645732" lon="35.7023313">
<ele>1022.5</ele>
<time>2015-11-22T05:40:29Z</time>
</trkpt>
<trkpt lat="31.1644637" lon="35.7022685">
<ele>1023.5</ele>
<time>2015-11-22T05:40:35Z</time>
</trkpt>
<trkpt lat="31.1640600" lon="35.7018631">
<ele>1015.0</ele>
<time>2015-11-22T05:40:57Z</time>
</trkpt>
<trkpt lat="31.1630753" lon="35.7007801">
<ele>1034.7</ele>
<time>2015-11-22T05:41:45Z</time>
</trkpt>
<trkpt lat="31.1620623" lon="35.6998144">
<ele>1038.2</ele>
<time>2015-11-22T05:42:41Z</time>
</trkpt>
<trkpt lat="31.1606299" lon="35.6993834">
<ele>1036.2</ele>
<time>2015-11-22T05:43:44Z</time>
</trkpt>
<trkpt lat="31.1590342" lon="35.6990150">
<ele>1045.2</ele>
<time>2015-11-22T05:45:02Z</time>
</trkpt>
<trkpt lat="31.1585356" lon="35.6988856">
<ele>1049.4</ele>
<time>2015-11-22T05:45:29Z</time>
</trkpt>
<trkpt lat="31.1564107" lon="35.6980132">
<ele>1064.9</ele>
<time>2015-11-22T05:47:18Z</time>
</trkpt>
<trkpt lat="31.1559764" lon="35.6980286">
<ele>1067.9</ele>
<time>2015-11-22T05:47:38Z</time>
</trkpt>
<trkpt lat="31.1509523" lon="35.7003399">
<ele>1108.3</ele>
<time>2015-11-22T05:52:49Z</time>
</trkpt>
<trkpt lat="31.1507128" lon="35.7004335">
<ele>1110.9</ele>
<time>2015-11-22T05:53:04Z</time>
</trkpt>
<trkpt lat="31.1500131" lon="35.7005683">
<ele>1112.3</ele>
<time>2015-11-22T05:53:46Z</time>
</trkpt>
<trkpt lat="31.1492301" lon="35.7001127">
<ele>1115.3</ele>
<time>2015-11-22T05:55:21Z</time>
</trkpt>
<trkpt lat="31.1492494" lon="35.7002436">
<ele>1114.2</ele>
<time>2015-11-22T06:16:33Z</time>
</trkpt>
<trkpt lat="31.1473873" lon="35.6994645">
<ele>1120.2</ele>
<time>2015-11-22T06:17:46Z</time>
</trkpt>
<trkpt lat="31.1428858" lon="35.6992748">
<ele>1139.0</ele>
<time>2015-11-22T06:20:36Z</time>
</trkpt>
<trkpt lat="31.1421402" lon="35.6992468">
<ele>1140.1</ele>
<time>2015-11-22T06:20:58Z</time>
</trkpt>
<trkpt lat="31.1409141" lon="35.6988938">
<ele>1140.8</ele>
<time>2015-11-22T06:21:32Z</time>
</trkpt>
<trkpt lat="31.1408433" lon="35.6986070">
<ele>1141.6</ele>
<time>2015-11-22T06:21:44Z</time>
</trkpt>
<trkpt lat="31.1402240" lon="35.6987000">
<ele>1141.6</ele>
<time>2015-11-22T06:22:42Z</time>
</trkpt>
<trkpt lat="31.1392525" lon="35.6983550">
<ele>1142.9</ele>
<time>2015-11-22T06:23:08Z</time>
</trkpt>
<trkpt lat="31.1370815" lon="35.6976448">
<ele>1133.9</ele>
<time>2015-11-22T06:23:51Z</time>
</trkpt>
<trkpt lat="31.1365268" lon="35.6975987">
<ele>1132.3</ele>
<time>2015-11-22T06:23:59Z</time>
</trkpt>
<trkpt lat="31.1364448" lon="35.6975986">
<ele>1132.6</ele>
<time>2015-11-22T06:24:00Z</time>
</trkpt>
<trkpt lat="31.1338123" lon="35.6986423">
<ele>1147.4</ele>
<time>2015-11-22T06:25:26Z</time>
</trkpt>
<trkpt lat="31.1335032" lon="35.6987905">
<ele>1146.7</ele>
<time>2015-11-22T06:25:42Z</time>
</trkpt>
<trkpt lat="31.1319194" lon="35.6985748">
<ele>1137.0</ele>
<time>2015-11-22T06:26:10Z</time>
</trkpt>
<trkpt lat="31.1313572" lon="35.6986407">
<ele>1136.6</ele>
<time>2015-11-22T06:26:17Z</time>
</trkpt>
<trkpt lat="31.1307949" lon="35.6988979">
<ele>1134.8</ele>
<time>2015-11-22T06:26:24Z</time>
</trkpt>
<trkpt lat="31.1259866" lon="35.7014530">
<ele>1142.2</ele>
<time>2015-11-22T06:27:40Z</time>
</trkpt>
<trkpt lat="31.1254475" lon="35.7017642">
<ele>1141.9</ele>
<time>2015-11-22T06:27:56Z</time>
</trkpt>
<trkpt lat="31.1246219" lon="35.7021215">
<ele>1140.1</ele>
<time>2015-11-22T06:28:16Z</time>
</trkpt>
<trkpt lat="31.1238800" lon="35.7021937">
<ele>1139.2</ele>
<time>2015-11-22T06:28:29Z</time>
</trkpt>
<trkpt lat="31.1226392" lon="35.7019666">
<ele>1137.9</ele>
<time>2015-11-22T06:28:48Z</time>
</trkpt>
<trkpt lat="31.1184763" lon="35.7011928">
<ele>1155.1</ele>
<time>2015-11-22T06:30:37Z</time>
</trkpt>
<trkpt lat="31.1179133" lon="35.7010367">
<ele>1157.5</ele>
<time>2015-11-22T06:30:55Z</time>
</trkpt>
<trkpt lat="31.1151048" lon="35.7003430">
<ele>1150.7</ele>
<time>2015-11-22T06:31:56Z</time>
</trkpt>
<trkpt lat="31.1077877" lon="35.6990959">
<ele>1148.7</ele>
<time>2015-11-22T06:33:53Z</time>
</trkpt>
<trkpt lat="31.1051314" lon="35.6982708">
<ele>1144.8</ele>
<time>2015-11-22T06:34:38Z</time>
</trkpt>
<trkpt lat="31.1007215" lon="35.6968812">
<ele>1146.6</ele>
<time>2015-11-22T06:36:06Z</time>
</trkpt>
<trkpt lat="31.1001326" lon="35.6966142">
<ele>1151.1</ele>
<time>2015-11-22T06:36:24Z</time>
</trkpt>
<trkpt lat="31.0973742" lon="35.6962025">
<ele>1159.3</ele>
<time>2015-11-22T06:37:54Z</time>
</trkpt>
<trkpt lat="31.0963625" lon="35.6960486">
<ele>1158.8</ele>
<time>2015-11-22T06:38:16Z</time>
</trkpt>
<trkpt lat="31.0937659" lon="35.6964351">
<ele>1148.1</ele>
<time>2015-11-22T06:39:30Z</time>
</trkpt>
<trkpt lat="31.0933318" lon="35.6964988">
<ele>1149.6</ele>
<time>2015-11-22T06:39:39Z</time>
</trkpt>
<trkpt lat="31.0904353" lon="35.6958914">
<ele>1155.9</ele>
<time>2015-11-22T06:41:38Z</time>
</trkpt>
<trkpt lat="31.0898365" lon="35.6959022">
<ele>1154.2</ele>
<time>2015-11-22T06:41:56Z</time>
</trkpt>
<trkpt lat="31.0803932" lon="35.6954402">
<ele>1197.4</ele>
<time>2015-11-22T07:13:31Z</time>
</trkpt>
<trkpt lat="31.0768466" lon="35.6952120">
<ele>1231.0</ele>
<time>2015-11-22T07:17:07Z</time>
</trkpt>
<trkpt lat="31.0756791" lon="35.6947454">
<ele>1247.4</ele>
<time>2015-11-22T07:18:25Z</time>
</trkpt>
<trkpt lat="31.0749636" lon="35.6945173">
<ele>1245.6</ele>
<time>2015-11-22T07:19:00Z</time>
</trkpt>
<trkpt lat="31.0739061" lon="35.6943813">
<ele>1244.7</ele>
<time>2015-11-22T07:23:38Z</time>
</trkpt>
<trkpt lat="31.0686460" lon="35.6952214">
<ele>1239.1</ele>
<time>2015-11-22T07:25:40Z</time>
</trkpt>
<trkpt lat="31.0676397" lon="35.6952057">
<ele>1237.6</ele>
<time>2015-11-22T07:26:07Z</time>
</trkpt>
<trkpt lat="31.0676479" lon="35.6957819">
<ele>1239.2</ele>
<time>2015-11-22T07:26:33Z</time>
</trkpt>
<trkpt lat="31.0677201" lon="35.6952799">
<ele>1237.8</ele>
<time>2015-11-22T07:27:39Z</time>
</trkpt>
<trkpt lat="31.0668884" lon="35.6948725">
<ele>1238.3</ele>
<time>2015-11-22T07:28:06Z</time>
</trkpt>
<trkpt lat="31.0651868" lon="35.6948565">
<ele>1238.0</ele>
<time>2015-11-22T07:30:24Z</time>
</trkpt>
<trkpt lat="31.0631340" lon="35.6947410">
<ele>1241.3</ele>
<time>2015-11-22T07:31:24Z</time>
</trkpt>
<trkpt lat="31.0625904" lon="35.6949971">
<ele>1242.1</ele>
<time>2015-11-22T07:31:45Z</time>
</trkpt>
<trkpt lat="31.0620809" lon="35.6949936">
<ele>1243.6</ele>
<time>2015-11-22T07:32:05Z</time>
</trkpt>
<trkpt lat="31.0612656" lon="35.6950247">
<ele>1247.3</ele>
<time>2015-11-22T07:32:36Z</time>
</trkpt>
<trkpt lat="31.0608053" lon="35.6962405">
<ele>1253.9</ele>
<time>2015-11-22T07:33:18Z</time>
</trkpt>
<trkpt lat="31.0601751" lon="35.6973115">
<ele>1259.6</ele>
<time>2015-11-22T07:34:00Z</time>
</trkpt>
<trkpt lat="31.0597234" lon="35.6981272">
<ele>1256.8</ele>
<time>2015-11-22T07:46:56Z</time>
</trkpt>
<trkpt lat="31.0584998" lon="35.7008466">
<ele>1238.1</ele>
<time>2015-11-22T07:47:32Z</time>
</trkpt>
<trkpt lat="31.0579602" lon="35.7018503">
<ele>1237.3</ele>
<time>2015-11-22T07:47:44Z</time>
</trkpt>
<trkpt lat="31.0511905" lon="35.7070221">
<ele>1210.3</ele>
<time>2015-11-22T07:49:21Z</time>
</trkpt>
<trkpt lat="31.0482164" lon="35.7092139">
<ele>1216.4</ele>
<time>2015-11-22T07:50:14Z</time>
</trkpt>
<trkpt lat="31.0432124" lon="35.7108848">
<ele>1220.0</ele>
<time>2015-11-22T07:51:44Z</time>
</trkpt>
<trkpt lat="31.0396111" lon="35.7121307">
<ele>1218.1</ele>
<time>2015-11-22T07:53:11Z</time>
</trkpt>
<trkpt lat="31.0348280" lon="35.7127888">
<ele>1215.7</ele>
<time>2015-11-22T07:54:24Z</time>
</trkpt>
<trkpt lat="31.0326598" lon="35.7138390">
<ele>1210.1</ele>
<time>2015-11-22T07:54:58Z</time>
</trkpt>
<trkpt lat="31.0284424" lon="35.7159568">
<ele>1218.1</ele>
<time>2015-11-22T07:56:28Z</time>
</trkpt>
<trkpt lat="31.0267371" lon="35.7168467">
<ele>1211.2</ele>
<time>2015-11-22T07:57:23Z</time>
</trkpt>
<trkpt lat="31.0251840" lon="35.7175473">
<ele>1204.7</ele>
<time>2015-11-22T07:59:33Z</time>
</trkpt>
<trkpt lat="31.0231671" lon="35.7184336">
<ele>1203.9</ele>
<time>2015-11-22T08:00:07Z</time>
</trkpt>
<trkpt lat="31.0223394" lon="35.7185996">
<ele>1206.4</ele>
<time>2015-11-22T08:00:20Z</time>
</trkpt>
<trkpt lat="31.0203209" lon="35.7186786">
<ele>1198.6</ele>
<time>2015-11-22T08:00:46Z</time>
</trkpt>
<trkpt lat="31.0173730" lon="35.7193481">
<ele>1180.3</ele>
<time>2015-11-22T08:01:11Z</time>
</trkpt>
<trkpt lat="31.0154294" lon="35.7198648">
<ele>1180.2</ele>
<time>2015-11-22T08:01:27Z</time>
</trkpt>
<trkpt lat="31.0148930" lon="35.7200663">
<ele>1177.5</ele>
<time>2015-11-22T08:01:32Z</time>
</trkpt>
<trkpt lat="31.0137844" lon="35.7205792">
<ele>1162.6</ele>
<time>2015-11-22T08:01:43Z</time>
</trkpt>
<trkpt lat="31.0125668" lon="35.7211206">
<ele>1171.3</ele>
<time>2015-11-22T08:01:55Z</time>
</trkpt>
<trkpt lat="31.0112847" lon="35.7216045">
<ele>1150.5</ele>
<time>2015-11-22T08:02:06Z</time>
</trkpt>
<trkpt lat="31.0105097" lon="35.7221028">
<ele>1136.9</ele>
<time>2015-11-22T08:02:12Z</time>
</trkpt>
<trkpt lat="31.0098262" lon="35.7225422">
<ele>1145.1</ele>
<time>2015-11-22T08:02:17Z</time>
</trkpt>
<trkpt lat="31.0082991" lon="35.7232597">
<ele>1124.6</ele>
<time>2015-11-22T08:02:27Z</time>
</trkpt>
<trkpt lat="31.0076902" lon="35.7235222">
<ele>1132.2</ele>
<time>2015-11-22T08:02:31Z</time>
</trkpt>
<trkpt lat="31.0062100" lon="35.7238215">
<ele>1124.4</ele>
<time>2015-11-22T08:02:41Z</time>
</trkpt>
<trkpt lat="31.0051593" lon="35.7236247">
<ele>1124.2</ele>
<time>2015-11-22T08:02:49Z</time>
</trkpt>
<trkpt lat="31.0045914" lon="35.7234684">
<ele>1112.0</ele>
<time>2015-11-22T08:02:54Z</time>
</trkpt>
<trkpt lat="31.0043714" lon="35.7234609">
<ele>1107.6</ele>
<time>2015-11-22T08:02:56Z</time>
</trkpt>
<trkpt lat="31.0036757" lon="35.7235801">
<ele>1106.4</ele>
<time>2015-11-22T08:03:02Z</time>
</trkpt>
<trkpt lat="31.0035528" lon="35.7236076">
<ele>1102.7</ele>
<time>2015-11-22T08:03:03Z</time>
</trkpt>
<trkpt lat="31.0028197" lon="35.7239474">
<ele>1085.6</ele>
<time>2015-11-22T08:03:10Z</time>
</trkpt>
<trkpt lat="31.0020628" lon="35.7246958">
<ele>1067.4</ele>
<time>2015-11-22T08:03:20Z</time>
</trkpt>
<trkpt lat="31.0018917" lon="35.7249232">
<ele>1070.1</ele>
<time>2015-11-22T08:03:24Z</time>
</trkpt>
<trkpt lat="31.0015950" lon="35.7250231">
<ele>1081.4</ele>
<time>2015-11-22T08:03:28Z</time>
</trkpt>
<trkpt lat="31.0013318" lon="35.7249760">
<ele>1083.2</ele>
<time>2015-11-22T08:03:31Z</time>
</trkpt>
<trkpt lat="30.9990671" lon="35.7247706">
<ele>1056.7</ele>
<time>2015-11-22T08:03:51Z</time>
</trkpt>
<trkpt lat="30.9989606" lon="35.7247092">
<ele>1055.6</ele>
<time>2015-11-22T08:03:52Z</time>
</trkpt>
<trkpt lat="30.9987173" lon="35.7244408">
<ele>1058.4</ele>
<time>2015-11-22T08:03:55Z</time>
</trkpt>
<trkpt lat="30.9982982" lon="35.7235953">
<ele>1057.8</ele>
<time>2015-11-22T08:04:02Z</time>
</trkpt>
<trkpt lat="30.9982284" lon="35.7234870">
<ele>1054.2</ele>
<time>2015-11-22T08:04:03Z</time>
</trkpt>
<trkpt lat="30.9979569" lon="35.7232517">
<ele>1041.9</ele>
<time>2015-11-22T08:04:06Z</time>
</trkpt>
<trkpt lat="30.9974700" lon="35.7228654">
<ele>1043.8</ele>
<time>2015-11-22T08:04:12Z</time>
</trkpt>
<trkpt lat="30.9974036" lon="35.7226333">
<ele>1042.4</ele>
<time>2015-11-22T08:04:14Z</time>
</trkpt>
<trkpt lat="30.9973139" lon="35.7208250">
<ele>1026.5</ele>
<time>2015-11-22T08:04:27Z</time>
</trkpt>
<trkpt lat="30.9976779" lon="35.7196602">
<ele>1014.5</ele>
<time>2015-11-22T08:04:38Z</time>
</trkpt>
<trkpt lat="30.9977380" lon="35.7194968">
<ele>1015.0</ele>
<time>2015-11-22T08:04:43Z</time>
</trkpt>
<trkpt lat="30.9977226" lon="35.7179393">
<ele>1011.8</ele>
<time>2015-11-22T08:05:44Z</time>
</trkpt>
<trkpt lat="30.9976375" lon="35.7175782">
<ele>1009.0</ele>
<time>2015-11-22T08:05:47Z</time>
</trkpt>
<trkpt lat="30.9974148" lon="35.7171455">
<ele>1002.1</ele>
<time>2015-11-22T08:05:52Z</time>
</trkpt>
<trkpt lat="30.9970046" lon="35.7171380">
<ele>985.0</ele>
<time>2015-11-22T08:06:01Z</time>
</trkpt>
<trkpt lat="30.9966980" lon="35.7177354">
<ele>972.0</ele>
<time>2015-11-22T08:08:42Z</time>
</trkpt>
<trkpt lat="30.9964204" lon="35.7184672">
<ele>969.0</ele>
<time>2015-11-22T08:08:50Z</time>
</trkpt>
<trkpt lat="30.9958541" lon="35.7206925">
<ele>949.7</ele>
<time>2015-11-22T08:09:08Z</time>
</trkpt>
<trkpt lat="30.9955751" lon="35.7211950">
<ele>953.7</ele>
<time>2015-11-22T08:09:12Z</time>
</trkpt>
<trkpt lat="30.9948817" lon="35.7221865">
<ele>938.5</ele>
<time>2015-11-22T08:09:21Z</time>
</trkpt>
<trkpt lat="30.9946900" lon="35.7224834">
<ele>943.1</ele>
<time>2015-11-22T08:09:24Z</time>
</trkpt>
<trkpt lat="30.9941646" lon="35.7233061">
<ele>934.4</ele>
<time>2015-11-22T08:09:32Z</time>
</trkpt>
<trkpt lat="30.9935483" lon="35.7246463">
<ele>924.9</ele>
<time>2015-11-22T08:09:45Z</time>
</trkpt>
<trkpt lat="30.9928886" lon="35.7254859">
<ele>919.0</ele>
<time>2015-11-22T08:09:55Z</time>
</trkpt>
<trkpt lat="30.9920967" lon="35.7259567">
<ele>915.5</ele>
<time>2015-11-22T08:10:04Z</time>
</trkpt>
<trkpt lat="30.9914311" lon="35.7264386">
<ele>903.6</ele>
<time>2015-11-22T08:10:12Z</time>
</trkpt>
<trkpt lat="30.9907561" lon="35.7272875">
<ele>895.3</ele>
<time>2015-11-22T08:10:22Z</time>
</trkpt>
<trkpt lat="30.9892765" lon="35.7292970">
<ele>892.7</ele>
<time>2015-11-22T08:10:50Z</time>
</trkpt>
<trkpt lat="30.9890643" lon="35.7301230">
<ele>893.9</ele>
<time>2015-11-22T08:11:05Z</time>
</trkpt>
<trkpt lat="30.9890264" lon="35.7323750">
<ele>887.2</ele>
<time>2015-11-22T08:11:53Z</time>
</trkpt>
<trkpt lat="30.9888516" lon="35.7330544">
<ele>886.7</ele>
<time>2015-11-22T08:12:02Z</time>
</trkpt>
<trkpt lat="30.9885993" lon="35.7335450">
<ele>888.6</ele>
<time>2015-11-22T08:12:09Z</time>
</trkpt>
<trkpt lat="30.9864588" lon="35.7370692">
<ele>859.0</ele>
<time>2015-11-22T08:12:50Z</time>
</trkpt>
<trkpt lat="30.9863916" lon="35.7371587">
<ele>857.9</ele>
<time>2015-11-22T08:12:51Z</time>
</trkpt>
<trkpt lat="30.9860080" lon="35.7375416">
<ele>861.7</ele>
<time>2015-11-22T08:12:56Z</time>
</trkpt>
<trkpt lat="30.9850748" lon="35.7386516">
<ele>845.8</ele>
<time>2015-11-22T08:13:09Z</time>
</trkpt>
<trkpt lat="30.9843358" lon="35.7410714">
<ele>846.5</ele>
<time>2015-11-22T08:13:37Z</time>
</trkpt>
<trkpt lat="30.9832028" lon="35.7453005">
<ele>810.9</ele>
<time>2015-11-22T08:14:17Z</time>
</trkpt>
<trkpt lat="30.9827410" lon="35.7460409">
<ele>799.6</ele>
<time>2015-11-22T08:14:23Z</time>
</trkpt>
<trkpt lat="30.9822563" lon="35.7466335">
<ele>797.1</ele>
<time>2015-11-22T08:14:28Z</time>
</trkpt>
<trkpt lat="30.9804181" lon="35.7485992">
<ele>783.9</ele>
<time>2015-11-22T08:14:48Z</time>
</trkpt>
<trkpt lat="30.9802489" lon="35.7488293">
<ele>783.3</ele>
<time>2015-11-22T08:14:51Z</time>
</trkpt>
<trkpt lat="30.9798857" lon="35.7494709">
<ele>777.5</ele>
<time>2015-11-22T08:14:59Z</time>
</trkpt>
<trkpt lat="30.9795303" lon="35.7504212">
<ele>767.2</ele>
<time>2015-11-22T08:15:09Z</time>
</trkpt>
<trkpt lat="30.9791593" lon="35.7525518">
<ele>749.3</ele>
<time>2015-11-22T08:15:26Z</time>
</trkpt>
<trkpt lat="30.9787401" lon="35.7541649">
<ele>746.1</ele>
<time>2015-11-22T08:15:39Z</time>
</trkpt>
<trkpt lat="30.9780997" lon="35.7551454">
<ele>743.3</ele>
<time>2015-11-22T08:15:50Z</time>
</trkpt>
<trkpt lat="30.9772190" lon="35.7562478">
<ele>728.3</ele>
<time>2015-11-22T08:16:04Z</time>
</trkpt>
<trkpt lat="30.9768768" lon="35.7571867">
<ele>716.4</ele>
<time>2015-11-22T08:16:12Z</time>
</trkpt>
<trkpt lat="30.9762652" lon="35.7590395">
<ele>707.8</ele>
<time>2015-11-22T08:16:27Z</time>
</trkpt>
<trkpt lat="30.9757882" lon="35.7599404">
<ele>706.9</ele>
<time>2015-11-22T08:16:36Z</time>
</trkpt>
<trkpt lat="30.9755779" lon="35.7602884">
<ele>703.3</ele>
<time>2015-11-22T08:16:40Z</time>
</trkpt>
<trkpt lat="30.9745503" lon="35.7613386">
<ele>692.8</ele>
<time>2015-11-22T08:16:53Z</time>
</trkpt>
<trkpt lat="30.9728899" lon="35.7624091">
<ele>672.3</ele>
<time>2015-11-22T08:17:09Z</time>
</trkpt>
<trkpt lat="30.9722794" lon="35.7628002">
<ele>675.2</ele>
<time>2015-11-22T08:17:14Z</time>
</trkpt>
<trkpt lat="30.9711279" lon="35.7634819">
<ele>660.8</ele>
<time>2015-11-22T08:17:24Z</time>
</trkpt>
<trkpt lat="30.9708878" lon="35.7635699">
<ele>658.4</ele>
<time>2015-11-22T08:17:26Z</time>
</trkpt>
<trkpt lat="30.9701448" lon="35.7635847">
<ele>658.9</ele>
<time>2015-11-22T08:17:32Z</time>
</trkpt>
<trkpt lat="30.9691258" lon="35.7630912">
<ele>658.9</ele>
<time>2015-11-22T08:17:41Z</time>
</trkpt>
<trkpt lat="30.9684924" lon="35.7628727">
<ele>649.5</ele>
<time>2015-11-22T08:17:47Z</time>
</trkpt>
<trkpt lat="30.9679260" lon="35.7630413">
<ele>639.9</ele>
<time>2015-11-22T08:17:53Z</time>
</trkpt>
<trkpt lat="30.9678399" lon="35.7630822">
<ele>639.4</ele>
<time>2015-11-22T08:17:54Z</time>
</trkpt>
<trkpt lat="30.9664665" lon="35.7639297">
<ele>634.5</ele>
<time>2015-11-22T08:19:17Z</time>
</trkpt>
<trkpt lat="30.9664142" lon="35.7640430">
<ele>634.5</ele>
<time>2015-11-22T08:21:10Z</time>
</trkpt>
<trkpt lat="30.9660400" lon="35.7645531">
<ele>625.6</ele>
<time>2015-11-22T08:21:35Z</time>
</trkpt>
<trkpt lat="30.9659089" lon="35.7650546">
<ele>620.9</ele>
<time>2015-11-22T08:21:43Z</time>
</trkpt>
<trkpt lat="30.9659540" lon="35.7663747">
<ele>614.4</ele>
<time>2015-11-22T08:21:59Z</time>
</trkpt>
<trkpt lat="30.9660029" lon="35.7682252">
<ele>608.6</ele>
<time>2015-11-22T08:22:17Z</time>
</trkpt>
<trkpt lat="30.9652056" lon="35.7703784">
<ele>605.6</ele>
<time>2015-11-22T08:22:43Z</time>
</trkpt>
<trkpt lat="30.9604574" lon="35.7707093">
<ele>520.3</ele>
<time>2015-11-22T08:36:25Z</time>
</trkpt>
<trkpt lat="30.9604132" lon="35.7706744">
<ele>519.3</ele>
<time>2015-11-22T08:37:01Z</time>
</trkpt>
<trkpt lat="30.9599037" lon="35.7701345">
<ele>513.1</ele>
<time>2015-11-22T08:37:14Z</time>
</trkpt>
<trkpt lat="30.9578742" lon="35.7693207">
<ele>488.8</ele>
<time>2015-11-22T08:37:34Z</time>
</trkpt>
<trkpt lat="30.9574790" lon="35.7688005">
<ele>485.2</ele>
<time>2015-11-22T08:37:40Z</time>
</trkpt>
<trkpt lat="30.9574231" lon="35.7683191">
<ele>480.3</ele>
<time>2015-11-22T08:37:44Z</time>
</trkpt>
<trkpt lat="30.9577426" lon="35.7671015">
<ele>467.7</ele>
<time>2015-11-22T08:37:53Z</time>
</trkpt>
<trkpt lat="30.9577881" lon="35.7662576">
<ele>461.4</ele>
<time>2015-11-22T08:37:58Z</time>
</trkpt>
<trkpt lat="30.9573758" lon="35.7638608">
<ele>443.3</ele>
<time>2015-11-22T08:38:12Z</time>
</trkpt>
<trkpt lat="30.9571181" lon="35.7621666">
<ele>441.4</ele>
<time>2015-11-22T08:38:24Z</time>
</trkpt>
<trkpt lat="30.9573354" lon="35.7611786">
<ele>440.4</ele>
<time>2015-11-22T08:38:32Z</time>
</trkpt>
<trkpt lat="30.9591986" lon="35.7577908">
<ele>427.0</ele>
<time>2015-11-22T08:39:04Z</time>
</trkpt>
<trkpt lat="30.9601262" lon="35.7560272">
<ele>426.4</ele>
<time>2015-11-22T08:39:27Z</time>
</trkpt>
<trkpt lat="30.9606177" lon="35.7546109">
<ele>424.5</ele>
<time>2015-11-22T08:39:43Z</time>
</trkpt>
<trkpt lat="30.9608551" lon="35.7524118">
<ele>427.2</ele>
<time>2015-11-22T08:40:05Z</time>
</trkpt>
<trkpt lat="30.9608481" lon="35.7521448">
<ele>427.3</ele>
<time>2015-11-22T08:40:08Z</time>
</trkpt>
<trkpt lat="30.9605435" lon="35.7445748">
<ele>416.1</ele>
<time>2015-11-22T08:41:24Z</time>
</trkpt>
<trkpt lat="30.9609787" lon="35.7433005">
<ele>412.2</ele>
<time>2015-11-22T08:41:36Z</time>
</trkpt>
<trkpt lat="30.9615981" lon="35.7425259">
<ele>411.2</ele>
<time>2015-11-22T08:41:48Z</time>
</trkpt>
<trkpt lat="30.9623781" lon="35.7417947">
<ele>417.2</ele>
<time>2015-11-22T08:42:31Z</time>
</trkpt>
<trkpt lat="30.9626605" lon="35.7408244">
<ele>425.9</ele>
<time>2015-11-22T08:48:20Z</time>
</trkpt>
<trkpt lat="30.9623859" lon="35.7399968">
<ele>428.7</ele>
<time>2015-11-22T08:48:42Z</time>
</trkpt>
<trkpt lat="30.9618818" lon="35.7394822">
<ele>430.1</ele>
<time>2015-11-22T08:49:09Z</time>
</trkpt>
<trkpt lat="30.9612521" lon="35.7387981">
<ele>437.7</ele>
<time>2015-11-22T08:49:54Z</time>
</trkpt>
<trkpt lat="30.9608692" lon="35.7381226">
<ele>450.1</ele>
<time>2015-11-22T08:50:38Z</time>
</trkpt>
<trkpt lat="30.9607368" lon="35.7375102">
<ele>451.1</ele>
<time>2015-11-22T08:51:08Z</time>
</trkpt>
<trkpt lat="30.9607766" lon="35.7371365">
<ele>449.0</ele>
<time>2015-11-22T08:51:26Z</time>
</trkpt>
<trkpt lat="30.9608979" lon="35.7356574">
<ele>466.7</ele>
<time>2015-11-22T08:52:39Z</time>
</trkpt>
<trkpt lat="30.9606393" lon="35.7349467">
<ele>471.3</ele>
<time>2015-11-22T08:57:28Z</time>
</trkpt>
<trkpt lat="30.9602982" lon="35.7344410">
<ele>480.5</ele>
<time>2015-11-22T08:58:05Z</time>
</trkpt>
<trkpt lat="30.9598609" lon="35.7340423">
<ele>489.6</ele>
<time>2015-11-22T08:58:34Z</time>
</trkpt>
<trkpt lat="30.9590692" lon="35.7333082">
<ele>489.4</ele>
<time>2015-11-22T08:59:11Z</time>
</trkpt>
<trkpt lat="30.9586536" lon="35.7323478">
<ele>487.3</ele>
<time>2015-11-22T08:59:48Z</time>
</trkpt>
<trkpt lat="30.9586516" lon="35.7321234">
<ele>486.0</ele>
<time>2015-11-22T08:59:56Z</time>
</trkpt>
<trkpt lat="30.9586713" lon="35.7318348">
<ele>488.8</ele>
<time>2015-11-22T09:00:08Z</time>
</trkpt>
<trkpt lat="30.9590586" lon="35.7307379">
<ele>506.8</ele>
<time>2015-11-22T09:07:02Z</time>
</trkpt>
<trkpt lat="30.9593382" lon="35.7300652">
<ele>505.8</ele>
<time>2015-11-22T09:07:44Z</time>
</trkpt>
<trkpt lat="30.9593533" lon="35.7300127">
<ele>505.9</ele>
<time>2015-11-22T09:07:47Z</time>
</trkpt>
<trkpt lat="30.9594385" lon="35.7293097">
<ele>518.1</ele>
<time>2015-11-22T09:08:24Z</time>
</trkpt>
<trkpt lat="30.9591650" lon="35.7285608">
<ele>524.2</ele>
<time>2015-11-22T09:08:57Z</time>
</trkpt>
<trkpt lat="30.9591029" lon="35.7284619">
<ele>523.6</ele>
<time>2015-11-22T09:09:01Z</time>
</trkpt>
<trkpt lat="30.9579558" lon="35.7271538">
<ele>513.3</ele>
<time>2015-11-22T09:09:26Z</time>
</trkpt>
<trkpt lat="30.9577404" lon="35.7265577">
<ele>506.7</ele>
<time>2015-11-22T09:09:32Z</time>
</trkpt>
<trkpt lat="30.9577283" lon="35.7264529">
<ele>504.8</ele>
<time>2015-11-22T09:09:33Z</time>
</trkpt>
<trkpt lat="30.9577404" lon="35.7259614">
<ele>511.4</ele>
<time>2015-11-22T09:09:39Z</time>
</trkpt>
<trkpt lat="30.9577931" lon="35.7257556">
<ele>515.8</ele>
<time>2015-11-22T09:09:42Z</time>
</trkpt>
<trkpt lat="30.9579264" lon="35.7253651">
<ele>515.6</ele>
<time>2015-11-22T09:09:48Z</time>
</trkpt>
<trkpt lat="30.9581528" lon="35.7250709">
<ele>513.9</ele>
<time>2015-11-22T09:09:56Z</time>
</trkpt>
<trkpt lat="30.9586244" lon="35.7244819">
<ele>525.4</ele>
<time>2015-11-22T09:10:22Z</time>
</trkpt>
<trkpt lat="30.9592600" lon="35.7237369">
<ele>521.0</ele>
<time>2015-11-22T09:11:12Z</time>
</trkpt>
<trkpt lat="30.9594552" lon="35.7234228">
<ele>524.9</ele>
<time>2015-11-22T09:12:41Z</time>
</trkpt>
<trkpt lat="30.9596553" lon="35.7225510">
<ele>533.5</ele>
<time>2015-11-22T09:13:07Z</time>
</trkpt>
<trkpt lat="30.9596509" lon="35.7224569">
<ele>533.5</ele>
<time>2015-11-22T09:13:09Z</time>
</trkpt>
<trkpt lat="30.9594710" lon="35.7216435">
<ele>527.9</ele>
<time>2015-11-22T09:13:25Z</time>
</trkpt>
<trkpt lat="30.9593710" lon="35.7214521">
<ele>527.0</ele>
<time>2015-11-22T09:13:29Z</time>
</trkpt>
<trkpt lat="30.9591374" lon="35.7211133">
<ele>535.3</ele>
<time>2015-11-22T09:13:37Z</time>
</trkpt>
<trkpt lat="30.9590577" lon="35.7210432">
<ele>536.3</ele>
<time>2015-11-22T09:13:39Z</time>
</trkpt>
<trkpt lat="30.9579262" lon="35.7203421">
<ele>534.6</ele>
<time>2015-11-22T09:14:03Z</time>
</trkpt>
<trkpt lat="30.9575133" lon="35.7200581">
<ele>528.5</ele>
<time>2015-11-22T09:14:12Z</time>
</trkpt>
<trkpt lat="30.9571411" lon="35.7196196">
<ele>522.2</ele>
<time>2015-11-22T09:14:21Z</time>
</trkpt>
<trkpt lat="30.9568935" lon="35.7191661">
<ele>525.5</ele>
<time>2015-11-22T09:14:29Z</time>
</trkpt>
<trkpt lat="30.9567551" lon="35.7181550">
<ele>532.3</ele>
<time>2015-11-22T09:14:44Z</time>
</trkpt>
<trkpt lat="30.9569636" lon="35.7172296">
<ele>525.6</ele>
<time>2015-11-22T09:14:58Z</time>
</trkpt>
<trkpt lat="30.9574568" lon="35.7149453">
<ele>536.6</ele>
<time>2015-11-22T09:15:58Z</time>
</trkpt>
<trkpt lat="30.9574414" lon="35.7147571">
<ele>536.8</ele>
<time>2015-11-22T09:16:02Z</time>
</trkpt>
<trkpt lat="30.9572882" lon="35.7132740">
<ele>527.6</ele>
<time>2015-11-22T09:16:24Z</time>
</trkpt>
<trkpt lat="30.9571770" lon="35.7122273">
<ele>531.8</ele>
<time>2015-11-22T09:16:35Z</time>
</trkpt>
<trkpt lat="30.9571078" lon="35.7115721">
<ele>521.7</ele>
<time>2015-11-22T09:16:41Z</time>
</trkpt>
<trkpt lat="30.9569978" lon="35.7106676">
<ele>527.0</ele>
<time>2015-11-22T09:16:49Z</time>
</trkpt>
<trkpt lat="30.9569421" lon="35.7104383">
<ele>527.1</ele>
<time>2015-11-22T09:16:51Z</time>
</trkpt>
<trkpt lat="30.9565559" lon="35.7097089">
<ele>515.6</ele>
<time>2015-11-22T09:16:58Z</time>
</trkpt>
<trkpt lat="30.9564850" lon="35.7096167">
<ele>515.7</ele>
<time>2015-11-22T09:16:59Z</time>
</trkpt>
<trkpt lat="30.9556269" lon="35.7090647">
<ele>513.8</ele>
<time>2015-11-22T09:17:09Z</time>
</trkpt>
<trkpt lat="30.9540558" lon="35.7088255">
<ele>511.1</ele>
<time>2015-11-22T09:17:26Z</time>
</trkpt>
<trkpt lat="30.9520956" lon="35.7085191">
<ele>490.0</ele>
<time>2015-11-22T09:17:44Z</time>
</trkpt>
<trkpt lat="30.9513856" lon="35.7084774">
<ele>493.3</ele>
<time>2015-11-22T09:17:50Z</time>
</trkpt>
<trkpt lat="30.9509264" lon="35.7085276">
<ele>495.3</ele>
<time>2015-11-22T09:17:54Z</time>
</trkpt>
<trkpt lat="30.9493057" lon="35.7088134">
<ele>481.5</ele>
<time>2015-11-22T09:18:10Z</time>
</trkpt>
<trkpt lat="30.9483596" lon="35.7088854">
<ele>490.5</ele>
<time>2015-11-22T09:18:20Z</time>
</trkpt>
<trkpt lat="30.9477590" lon="35.7089359">
<ele>491.1</ele>
<time>2015-11-22T09:18:28Z</time>
</trkpt>
<trkpt lat="30.9461144" lon="35.7094532">
<ele>494.0</ele>
<time>2015-11-22T09:19:10Z</time>
</trkpt>
<trkpt lat="30.9451159" lon="35.7095541">
<ele>492.5</ele>
<time>2015-11-22T09:19:33Z</time>
</trkpt>
<trkpt lat="30.9430572" lon="35.7096331">
<ele>502.5</ele>
<time>2015-11-22T09:20:37Z</time>
</trkpt>
<trkpt lat="30.9406307" lon="35.7106540">
<ele>515.7</ele>
<time>2015-11-22T09:22:02Z</time>
</trkpt>
<trkpt lat="30.9375415" lon="35.7130088">
<ele>533.0</ele>
<time>2015-11-22T09:24:06Z</time>
</trkpt>
<trkpt lat="30.9373759" lon="35.7131033">
<ele>534.5</ele>
<time>2015-11-22T09:24:12Z</time>
</trkpt>
<trkpt lat="30.9366006" lon="35.7134486">
<ele>535.3</ele>
<time>2015-11-22T09:24:38Z</time>
</trkpt>
<trkpt lat="30.9340573" lon="35.7140008">
<ele>541.3</ele>
<time>2015-11-22T09:25:57Z</time>
</trkpt>
<trkpt lat="30.9331141" lon="35.7141715">
<ele>546.0</ele>
<time>2015-11-22T09:26:27Z</time>
</trkpt>
<trkpt lat="30.9292465" lon="35.7141195">
<ele>561.2</ele>
<time>2015-11-22T09:28:27Z</time>
</trkpt>
<trkpt lat="30.9270584" lon="35.7130527">
<ele>571.9</ele>
<time>2015-11-22T09:29:44Z</time>
</trkpt>
<trkpt lat="30.9272310" lon="35.7129729">
<ele>572.8</ele>
<time>2015-11-22T09:31:00Z</time>
</trkpt>
<trkpt lat="30.9269661" lon="35.7130424">
<ele>572.0</ele>
<time>2015-11-22T09:38:46Z</time>
</trkpt>
<trkpt lat="30.9231566" lon="35.7117902">
<ele>586.5</ele>
<time>2015-11-22T09:40:54Z</time>
</trkpt>
<trkpt lat="30.9204987" lon="35.7098445">
<ele>602.2</ele>
<time>2015-11-22T09:42:46Z</time>
</trkpt>
<trkpt lat="30.9186410" lon="35.7075880">
<ele>613.2</ele>
<time>2015-11-22T09:44:44Z</time>
</trkpt>
<trkpt lat="30.9182144" lon="35.7072141">
<ele>614.0</ele>
<time>2015-11-22T09:45:08Z</time>
</trkpt>
<trkpt lat="30.9170674" lon="35.7061604">
<ele>624.1</ele>
<time>2015-11-22T09:46:17Z</time>
</trkpt>
<trkpt lat="30.9168253" lon="35.7059418">
<ele>630.0</ele>
<time>2015-11-22T09:46:32Z</time>
</trkpt>
<trkpt lat="30.9156924" lon="35.7055750">
<ele>644.9</ele>
<time>2015-11-22T09:47:32Z</time>
</trkpt>
<trkpt lat="30.9143964" lon="35.7052476">
<ele>644.6</ele>
<time>2015-11-22T09:54:23Z</time>
</trkpt>
<trkpt lat="30.9139368" lon="35.7046938">
<ele>645.6</ele>
<time>2015-11-22T09:54:47Z</time>
</trkpt>
<trkpt lat="30.9135245" lon="35.7040684">
<ele>650.6</ele>
<time>2015-11-22T09:55:09Z</time>
</trkpt>
<trkpt lat="30.9116050" lon="35.7034797">
<ele>674.0</ele>
<time>2015-11-22T09:57:06Z</time>
</trkpt>
<trkpt lat="30.9107041" lon="35.7026805">
<ele>686.3</ele>
<time>2015-11-22T09:58:18Z</time>
</trkpt>
<trkpt lat="30.9097562" lon="35.7018350">
<ele>693.3</ele>
<time>2015-11-22T09:59:33Z</time>
</trkpt>
<trkpt lat="30.9093364" lon="35.7012114">
<ele>693.2</ele>
<time>2015-11-22T10:00:15Z</time>
</trkpt>
<trkpt lat="30.9093072" lon="35.7011499">
<ele>693.3</ele>
<time>2015-11-22T10:00:18Z</time>
</trkpt>
<trkpt lat="30.9091008" lon="35.7003737">
<ele>705.5</ele>
<time>2015-11-22T10:01:01Z</time>
</trkpt>
<trkpt lat="30.9093054" lon="35.6991122">
<ele>723.8</ele>
<time>2015-11-22T10:02:13Z</time>
</trkpt>
<trkpt lat="30.9098288" lon="35.6983618">
<ele>734.4</ele>
<time>2015-11-22T10:03:02Z</time>
</trkpt>
<trkpt lat="30.9101435" lon="35.6981326">
<ele>740.0</ele>
<time>2015-11-22T10:03:20Z</time>
</trkpt>
<trkpt lat="30.9107612" lon="35.6978425">
<ele>738.0</ele>
<time>2015-11-22T10:05:03Z</time>
</trkpt>
<trkpt lat="30.9123808" lon="35.6978374">
<ele>731.8</ele>
<time>2015-11-22T10:05:46Z</time>
</trkpt>
<trkpt lat="30.9148997" lon="35.6980440">
<ele>737.1</ele>
<time>2015-11-22T10:06:57Z</time>
</trkpt>
<trkpt lat="30.9149453" lon="35.6980517">
<ele>737.5</ele>
<time>2015-11-22T10:06:58Z</time>
</trkpt>
<trkpt lat="30.9156334" lon="35.6983011">
<ele>750.5</ele>
<time>2015-11-22T10:07:26Z</time>
</trkpt>
<trkpt lat="30.9165008" lon="35.6987597">
<ele>747.6</ele>
<time>2015-11-22T10:08:17Z</time>
</trkpt>
<trkpt lat="30.9176618" lon="35.6993701">
<ele>760.7</ele>
<time>2015-11-22T10:09:25Z</time>
</trkpt>
<trkpt lat="30.9185148" lon="35.6998220">
<ele>757.1</ele>
<time>2015-11-22T10:12:37Z</time>
</trkpt>
<trkpt lat="30.9187396" lon="35.6998758">
<ele>756.4</ele>
<time>2015-11-22T10:12:46Z</time>
</trkpt>
<trkpt lat="30.9190851" lon="35.6998774">
<ele>760.7</ele>
<time>2015-11-22T10:12:56Z</time>
</trkpt>
<trkpt lat="30.9196068" lon="35.6995379">
<ele>770.6</ele>
<time>2015-11-22T10:13:19Z</time>
</trkpt>
<trkpt lat="30.9197304" lon="35.6992880">
<ele>776.1</ele>
<time>2015-11-22T10:13:36Z</time>
</trkpt>
<trkpt lat="30.9198310" lon="35.6989034">
<ele>779.2</ele>
<time>2015-11-22T10:14:00Z</time>
</trkpt>
<trkpt lat="30.9195744" lon="35.6982036">
<ele>787.5</ele>
<time>2015-11-22T10:14:43Z</time>
</trkpt>
<trkpt lat="30.9187307" lon="35.6968726">
<ele>799.8</ele>
<time>2015-11-22T10:16:07Z</time>
</trkpt>
<trkpt lat="30.9157223" lon="35.6924894">
<ele>821.5</ele>
<time>2015-11-22T10:20:37Z</time>
</trkpt>
<trkpt lat="30.9156822" lon="35.6924413">
<ele>822.3</ele>
<time>2015-11-22T10:20:40Z</time>
</trkpt>
<trkpt lat="30.9153526" lon="35.6924422">
<ele>831.2</ele>
<time>2015-11-22T10:20:59Z</time>
</trkpt>
<trkpt lat="30.9135491" lon="35.6932244">
<ele>855.5</ele>
<time>2015-11-22T10:23:08Z</time>
</trkpt>
<trkpt lat="30.9134411" lon="35.6932449">
<ele>857.0</ele>
<time>2015-11-22T10:23:15Z</time>
</trkpt>
<trkpt lat="30.9127572" lon="35.6932104">
<ele>857.4</ele>
<time>2015-11-22T10:23:57Z</time>
</trkpt>
<trkpt lat="30.9115029" lon="35.6922816">
<ele>852.6</ele>
<time>2015-11-22T10:25:11Z</time>
</trkpt>
<trkpt lat="30.9104151" lon="35.6914413">
<ele>861.9</ele>
<time>2015-11-22T10:26:05Z</time>
</trkpt>
<trkpt lat="30.9090324" lon="35.6910247">
<ele>867.3</ele>
<time>2015-11-22T10:27:02Z</time>
</trkpt>
<trkpt lat="30.9083994" lon="35.6908297">
<ele>863.9</ele>
<time>2015-11-22T10:27:27Z</time>
</trkpt>
<trkpt lat="30.9067853" lon="35.6904905">
<ele>882.0</ele>
<time>2015-11-22T10:28:38Z</time>
</trkpt>
<trkpt lat="30.9065998" lon="35.6904581">
<ele>875.7</ele>
<time>2015-11-22T10:28:47Z</time>
</trkpt>
<trkpt lat="30.9064236" lon="35.6900786">
<ele>878.2</ele>
<time>2015-11-22T10:47:53Z</time>
</trkpt>
<trkpt lat="30.9062370" lon="35.6898862">
<ele>880.9</ele>
<time>2015-11-22T10:48:11Z</time>
</trkpt>
<trkpt lat="30.9051609" lon="35.6897110">
<ele>903.1</ele>
<time>2015-11-22T10:49:26Z</time>
</trkpt>
<trkpt lat="30.9050245" lon="35.6896351">
<ele>902.9</ele>
<time>2015-11-22T10:49:36Z</time>
</trkpt>
<trkpt lat="30.9045884" lon="35.6889079">
<ele>900.8</ele>
<time>2015-11-22T10:50:17Z</time>
</trkpt>
<trkpt lat="30.9042936" lon="35.6887373">
<ele>905.5</ele>
<time>2015-11-22T10:50:29Z</time>
</trkpt>
<trkpt lat="30.9027386" lon="35.6893004">
<ele>929.0</ele>
<time>2015-11-22T10:52:09Z</time>
</trkpt>
<trkpt lat="30.9019780" lon="35.6894856">
<ele>931.9</ele>
<time>2015-11-22T10:52:52Z</time>
</trkpt>
<trkpt lat="30.8987523" lon="35.6885820">
<ele>943.4</ele>
<time>2015-11-22T10:55:43Z</time>
</trkpt>
<trkpt lat="30.8984725" lon="35.6884820">
<ele>947.0</ele>
<time>2015-11-22T10:56:01Z</time>
</trkpt>
<trkpt lat="30.8972395" lon="35.6883770">
<ele>960.2</ele>
<time>2015-11-22T10:57:18Z</time>
</trkpt>
<trkpt lat="30.8963424" lon="35.6885158">
<ele>968.0</ele>
<time>2015-11-22T10:58:17Z</time>
</trkpt>
<trkpt lat="30.8945880" lon="35.6892662">
<ele>993.0</ele>
<time>2015-11-22T11:00:11Z</time>
</trkpt>
<trkpt lat="30.8937071" lon="35.6895401">
<ele>995.0</ele>
<time>2015-11-22T11:13:08Z</time>
</trkpt>
<trkpt lat="30.8923684" lon="35.6896109">
<ele>1004.1</ele>
<time>2015-11-22T11:14:28Z</time>
</trkpt>
<trkpt lat="30.8898581" lon="35.6897871">
<ele>1037.2</ele>
<time>2015-11-22T11:16:52Z</time>
</trkpt>
<trkpt lat="30.8888171" lon="35.6898029">
<ele>1041.4</ele>
<time>2015-11-22T11:17:58Z</time>
</trkpt>
<trkpt lat="30.8884095" lon="35.6897217">
<ele>1039.7</ele>
<time>2015-11-22T11:18:24Z</time>
</trkpt>
<trkpt lat="30.8877468" lon="35.6893820">
<ele>1052.8</ele>
<time>2015-11-22T11:19:04Z</time>
</trkpt>
<trkpt lat="30.8871334" lon="35.6891052">
<ele>1052.3</ele>
<time>2015-11-22T11:19:41Z</time>
</trkpt>
<trkpt lat="30.8852116" lon="35.6886131">
<ele>1055.7</ele>
<time>2015-11-22T11:21:35Z</time>
</trkpt>
<trkpt lat="30.8847124" lon="35.6883339">
<ele>1057.2</ele>
<time>2015-11-22T11:22:02Z</time>
</trkpt>
<trkpt lat="30.8842091" lon="35.6879345">
<ele>1075.8</ele>
<time>2015-11-22T11:24:40Z</time>
</trkpt>
<trkpt lat="30.8839300" lon="35.6878598">
<ele>1079.8</ele>
<time>2015-11-22T11:24:59Z</time>
</trkpt>
<trkpt lat="30.8823782" lon="35.6875366">
<ele>1096.9</ele>
<time>2015-11-22T11:26:37Z</time>
</trkpt>
<trkpt lat="30.8817940" lon="35.6875565">
<ele>1103.8</ele>
<time>2015-11-22T11:27:13Z</time>
</trkpt>
<trkpt lat="30.8805524" lon="35.6876940">
<ele>1107.8</ele>
<time>2015-11-22T11:28:18Z</time>
</trkpt>
<trkpt lat="30.8779109" lon="35.6874068">
<ele>1117.6</ele>
<time>2015-11-22T11:30:13Z</time>
</trkpt>
<trkpt lat="30.8773562" lon="35.6869592">
<ele>1117.1</ele>
<time>2015-11-22T11:30:49Z</time>
</trkpt>
<trkpt lat="30.8766238" lon="35.6862049">
<ele>1131.1</ele>
<time>2015-11-22T11:31:46Z</time>
</trkpt>
<trkpt lat="30.8764525" lon="35.6860916">
<ele>1131.0</ele>
<time>2015-11-22T11:39:08Z</time>
</trkpt>
<trkpt lat="30.8754838" lon="35.6845718">
<ele>1139.6</ele>
<time>2015-11-22T11:40:12Z</time>
</trkpt>
<trkpt lat="30.8752219" lon="35.6776571">
<ele>1164.6</ele>
<time>2015-11-22T11:43:52Z</time>
</trkpt>
<trkpt lat="30.8746672" lon="35.6760047">
<ele>1170.7</ele>
<time>2015-11-22T11:44:54Z</time>
</trkpt>
<trkpt lat="30.8729321" lon="35.6712048">
<ele>1164.7</ele>
<time>2015-11-22T11:46:32Z</time>
</trkpt>
<trkpt lat="30.8722115" lon="35.6695984">
<ele>1159.4</ele>
<time>2015-11-22T11:47:51Z</time>
</trkpt>
<trkpt lat="30.8720499" lon="35.6694168">
<ele>1158.3</ele>
<time>2015-11-22T11:47:57Z</time>
</trkpt>
<trkpt lat="30.8718200" lon="35.6692086">
<ele>1159.7</ele>
<time>2015-11-22T12:13:58Z</time>
</trkpt>
<trkpt lat="30.8679520" lon="35.6671460">
<ele>1175.9</ele>
<time>2015-11-22T12:16:19Z</time>
</trkpt>
<trkpt lat="30.8654706" lon="35.6657473">
<ele>1174.4</ele>
<time>2015-11-22T12:17:26Z</time>
</trkpt>
<trkpt lat="30.8643302" lon="35.6644126">
<ele>1178.2</ele>
<time>2015-11-22T12:17:59Z</time>
</trkpt>
<trkpt lat="30.8633675" lon="35.6631863">
<ele>1183.3</ele>
<time>2015-11-22T12:18:33Z</time>
</trkpt>
<trkpt lat="30.8614667" lon="35.6605794">
<ele>1197.3</ele>
<time>2015-11-22T12:20:18Z</time>
</trkpt>
<trkpt lat="30.8601738" lon="35.6588063">
<ele>1189.0</ele>
<time>2015-11-22T12:20:57Z</time>
</trkpt>
<trkpt lat="30.8594231" lon="35.6578047">
<ele>1196.5</ele>
<time>2015-11-22T12:21:16Z</time>
</trkpt>
<trkpt lat="30.8583811" lon="35.6571493">
<ele>1195.3</ele>
<time>2015-11-22T12:21:39Z</time>
</trkpt>
<trkpt lat="30.8570050" lon="35.6565431">
<ele>1199.8</ele>
<time>2015-11-22T12:22:13Z</time>
</trkpt>
<trkpt lat="30.8543252" lon="35.6553619">
<ele>1195.6</ele>
<time>2015-11-22T12:23:10Z</time>
</trkpt>
<trkpt lat="30.8535130" lon="35.6546457">
<ele>1192.8</ele>
<time>2015-11-22T12:23:26Z</time>
</trkpt>
<trkpt lat="30.8515181" lon="35.6526710">
<ele>1206.4</ele>
<time>2015-11-22T12:24:39Z</time>
</trkpt>
<trkpt lat="30.8493353" lon="35.6543939">
<ele>1213.3</ele>
<time>2015-11-22T12:26:34Z</time>
</trkpt>
<trkpt lat="30.8491855" lon="35.6545544">
<ele>1213.0</ele>
<time>2015-11-22T12:26:40Z</time>
</trkpt>
<trkpt lat="30.8487467" lon="35.6547018">
<ele>1212.8</ele>
<time>2015-11-22T12:26:56Z</time>
</trkpt>
<trkpt lat="30.8479595" lon="35.6545750">
<ele>1209.0</ele>
<time>2015-11-22T12:27:16Z</time>
</trkpt>
<trkpt lat="30.8459708" lon="35.6536421">
<ele>1205.0</ele>
<time>2015-11-22T12:27:51Z</time>
</trkpt>
<trkpt lat="30.8448186" lon="35.6535131">
<ele>1203.1</ele>
<time>2015-11-22T12:28:10Z</time>
</trkpt>
<trkpt lat="30.8439399" lon="35.6534893">
<ele>1203.9</ele>
<time>2015-11-22T12:28:23Z</time>
</trkpt>
<trkpt lat="30.8414782" lon="35.6538756">
<ele>1208.8</ele>
<time>2015-11-22T12:29:06Z</time>
</trkpt>
<trkpt lat="30.8409599" lon="35.6536996">
<ele>1208.9</ele>
<time>2015-11-22T12:29:22Z</time>
</trkpt>
<trkpt lat="30.8406699" lon="35.6536970">
<ele>1207.5</ele>
<time>2015-11-22T12:29:34Z</time>
</trkpt>
<trkpt lat="30.8405709" lon="35.6537997">
<ele>1207.2</ele>
<time>2015-11-22T12:29:38Z</time>
</trkpt>
<trkpt lat="30.8405432" lon="35.6559222">
<ele>1187.8</ele>
<time>2015-11-22T12:30:00Z</time>
</trkpt>
<trkpt lat="30.8405252" lon="35.6561846">
<ele>1187.4</ele>
<time>2015-11-22T12:30:02Z</time>
</trkpt>
<trkpt lat="30.8402797" lon="35.6568369">
<ele>1187.0</ele>
<time>2015-11-22T12:30:08Z</time>
</trkpt>
<trkpt lat="30.8398859" lon="35.6571505">
<ele>1191.0</ele>
<time>2015-11-22T12:30:13Z</time>
</trkpt>
<trkpt lat="30.8380110" lon="35.6578888">
<ele>1197.3</ele>
<time>2015-11-22T12:30:45Z</time>
</trkpt>
<trkpt lat="30.8374063" lon="35.6583812">
<ele>1198.4</ele>
<time>2015-11-22T12:30:59Z</time>
</trkpt>
<trkpt lat="30.8365839" lon="35.6594078">
<ele>1201.9</ele>
<time>2015-11-22T12:31:26Z</time>
</trkpt>
<trkpt lat="30.8332699" lon="35.6643532">
<ele>1222.5</ele>
<time>2015-11-22T12:33:57Z</time>
</trkpt>
<trkpt lat="30.8321852" lon="35.6665760">
<ele>1224.1</ele>
<time>2015-11-22T12:35:19Z</time>
</trkpt>
<trkpt lat="30.8319058" lon="35.6675575">
<ele>1224.7</ele>
<time>2015-11-22T12:40:07Z</time>
</trkpt>
<trkpt lat="30.8315159" lon="35.6694324">
<ele>1206.7</ele>
<time>2015-11-22T12:40:32Z</time>
</trkpt>
<trkpt lat="30.8308044" lon="35.6730653">
<ele>1196.2</ele>
<time>2015-11-22T12:41:01Z</time>
</trkpt>
<trkpt lat="30.8300118" lon="35.6769664">
<ele>1172.4</ele>
<time>2015-11-22T12:41:36Z</time>
</trkpt>
<trkpt lat="30.8296386" lon="35.6788162">
<ele>1175.2</ele>
<time>2015-11-22T12:41:54Z</time>
</trkpt>
<trkpt lat="30.8293853" lon="35.6800876">
<ele>1163.3</ele>
<time>2015-11-22T12:42:07Z</time>
</trkpt>
<trkpt lat="30.8282443" lon="35.6855249">
<ele>1190.4</ele>
<time>2015-11-22T12:44:21Z</time>
</trkpt>
<trkpt lat="30.8281942" lon="35.6859533">
<ele>1190.9</ele>
<time>2015-11-22T12:45:31Z</time>
</trkpt>
<trkpt lat="30.8286091" lon="35.6842650">
<ele>1184.2</ele>
<time>2015-11-22T12:46:09Z</time>
</trkpt>
<trkpt lat="30.8286092" lon="35.6837152">
<ele>1180.5</ele>
<time>2015-11-22T12:46:23Z</time>
</trkpt>
<trkpt lat="30.8284671" lon="35.6837954">
<ele>1181.3</ele>
<time>2015-11-22T12:46:29Z</time>
</trkpt>
<trkpt lat="30.8280411" lon="35.6859802">
<ele>1192.4</ele>
<time>2015-11-22T12:48:22Z</time>
</trkpt>
<trkpt lat="30.8280108" lon="35.6876061">
<ele>1195.2</ele>
<time>2015-11-22T12:49:18Z</time>
</trkpt>
<trkpt lat="30.8278473" lon="35.6878693">
<ele>1196.4</ele>
<time>2015-11-22T12:49:24Z</time>
</trkpt>
<trkpt lat="30.8273900" lon="35.6876074">
<ele>1199.1</ele>
<time>2015-11-22T12:49:40Z</time>
</trkpt>
<trkpt lat="30.8253218" lon="35.6859219">
<ele>1190.1</ele>
<time>2015-11-22T12:52:02Z</time>
</trkpt>
<trkpt lat="30.8251803" lon="35.6858125">
<ele>1189.1</ele>
<time>2015-11-22T12:52:06Z</time>
</trkpt>
<trkpt lat="30.8246038" lon="35.6851397">
<ele>1181.5</ele>
<time>2015-11-22T12:52:22Z</time>
</trkpt>
<trkpt lat="30.8236425" lon="35.6846557">
<ele>1173.3</ele>
<time>2015-11-22T12:52:36Z</time>
</trkpt>
<trkpt lat="30.8235821" lon="35.6845925">
<ele>1173.3</ele>
<time>2015-11-22T12:52:37Z</time>
</trkpt>
<trkpt lat="30.8226000" lon="35.6833414">
<ele>1189.2</ele>
<time>2015-11-22T12:53:11Z</time>
</trkpt>
<trkpt lat="30.8223632" lon="35.6830024">
<ele>1181.7</ele>
<time>2015-11-22T12:54:16Z</time>
</trkpt>
<trkpt lat="30.8221467" lon="35.6826958">
<ele>1183.0</ele>
<time>2015-11-22T12:54:26Z</time>
</trkpt>
<trkpt lat="30.8214121" lon="35.6814504">
<ele>1182.8</ele>
<time>2015-11-22T12:54:55Z</time>
</trkpt>
<trkpt lat="30.8208341" lon="35.6808578">
<ele>1188.2</ele>
<time>2015-11-22T12:55:13Z</time>
</trkpt>
<trkpt lat="30.8196769" lon="35.6797615">
<ele>1182.9</ele>
<time>2015-11-22T12:55:46Z</time>
</trkpt>
<trkpt lat="30.8195910" lon="35.6796647">
<ele>1182.7</ele>
<time>2015-11-22T12:55:49Z</time>
</trkpt>
<trkpt lat="30.8184156" lon="35.6783412">
<ele>1195.1</ele>
<time>2015-11-22T12:56:29Z</time>
</trkpt>
<trkpt lat="30.8181220" lon="35.6779628">
<ele>1189.1</ele>
<time>2015-11-22T12:56:41Z</time>
</trkpt>
<trkpt lat="30.8180749" lon="35.6779128">
<ele>1189.3</ele>
<time>2015-11-22T12:56:43Z</time>
</trkpt>
<trkpt lat="30.8172572" lon="35.6774992">
<ele>1196.2</ele>
<time>2015-11-22T12:57:15Z</time>
</trkpt>
<trkpt lat="30.8171903" lon="35.6774355">
<ele>1196.2</ele>
<time>2015-11-22T12:57:17Z</time>
</trkpt>
<trkpt lat="30.8164996" lon="35.6765660">
<ele>1189.6</ele>
<time>2015-11-22T12:57:41Z</time>
</trkpt>
<trkpt lat="30.8156595" lon="35.6757894">
<ele>1195.8</ele>
<time>2015-11-22T12:58:11Z</time>
</trkpt>
<trkpt lat="30.8154503" lon="35.6754804">
<ele>1189.7</ele>
<time>2015-11-22T12:58:53Z</time>
</trkpt>
<trkpt lat="30.8153966" lon="35.6754394">
<ele>1189.9</ele>
<time>2015-11-22T12:58:56Z</time>
</trkpt>
<trkpt lat="30.8138076" lon="35.6748488">
<ele>1194.2</ele>
<time>2015-11-22T12:59:46Z</time>
</trkpt>
<trkpt lat="30.8123781" lon="35.6751440">
<ele>1195.0</ele>
<time>2015-11-22T13:00:30Z</time>
</trkpt>
<trkpt lat="30.8120879" lon="35.6749042">
<ele>1195.0</ele>
<time>2015-11-22T13:00:43Z</time>
</trkpt>
<trkpt lat="30.8110023" lon="35.6754456">
<ele>1202.7</ele>
<time>2015-11-22T13:01:35Z</time>
</trkpt>
<trkpt lat="30.8108591" lon="35.6753913">
<ele>1204.5</ele>
<time>2015-11-22T13:01:45Z</time>
</trkpt>
<trkpt lat="30.8108039" lon="35.6751633">
<ele>1205.8</ele>
<time>2015-11-22T13:01:57Z</time>
</trkpt>
<trkpt lat="30.8108255" lon="35.6751088">
<ele>1205.8</ele>
<time>2015-11-22T13:02:00Z</time>
</trkpt>
<trkpt lat="30.8120264" lon="35.6735694">
<ele>1201.0</ele>
<time>2015-11-22T13:02:35Z</time>
</trkpt>
<trkpt lat="30.8120592" lon="35.6735252">
<ele>1201.2</ele>
<time>2015-11-22T13:02:36Z</time>
</trkpt>
<trkpt lat="30.8124029" lon="35.6726636">
<ele>1211.9</ele>
<time>2015-11-22T13:03:24Z</time>
</trkpt>
<trkpt lat="30.8123359" lon="35.6722601">
<ele>1213.1</ele>
<time>2015-11-22T13:03:45Z</time>
</trkpt>
<trkpt lat="30.8117597" lon="35.6712744">
<ele>1222.6</ele>
<time>2015-11-22T13:04:48Z</time>
</trkpt>
<trkpt lat="30.8116534" lon="35.6711585">
<ele>1223.4</ele>
<time>2015-11-22T13:04:57Z</time>
</trkpt>
<trkpt lat="30.8114363" lon="35.6712226">
<ele>1220.8</ele>
<time>2015-11-22T13:05:11Z</time>
</trkpt>
<trkpt lat="30.8110837" lon="35.6717850">
<ele>1214.2</ele>
<time>2015-11-22T13:16:27Z</time>
</trkpt>
<trkpt lat="30.8094998" lon="35.6741264">
<ele>1222.8</ele>
<time>2015-11-22T13:17:03Z</time>
</trkpt>
<trkpt lat="30.8090366" lon="35.6748070">
<ele>1220.9</ele>
<time>2015-11-22T13:17:17Z</time>
</trkpt>
<trkpt lat="30.8065352" lon="35.6774918">
<ele>1209.6</ele>
<time>2015-11-22T13:18:05Z</time>
</trkpt>
<trkpt lat="30.8061636" lon="35.6779484">
<ele>1208.5</ele>
<time>2015-11-22T13:18:11Z</time>
</trkpt>
<trkpt lat="30.8049586" lon="35.6796696">
<ele>1210.7</ele>
<time>2015-11-22T13:18:36Z</time>
</trkpt>
<trkpt lat="30.8047152" lon="35.6801122">
<ele>1211.8</ele>
<time>2015-11-22T13:18:47Z</time>
</trkpt>
<trkpt lat="30.8037863" lon="35.6816362">
<ele>1223.1</ele>
<time>2015-11-22T13:19:39Z</time>
</trkpt>
<trkpt lat="30.8033780" lon="35.6823490">
<ele>1222.2</ele>
<time>2015-11-22T13:20:03Z</time>
</trkpt>
<trkpt lat="30.8012152" lon="35.6865958">
<ele>1225.0</ele>
<time>2015-11-22T13:21:29Z</time>
</trkpt>
<trkpt lat="30.8008597" lon="35.6873096">
<ele>1230.6</ele>
<time>2015-11-22T13:21:56Z</time>
</trkpt>
<trkpt lat="30.7999168" lon="35.6898500">
<ele>1248.1</ele>
<time>2015-11-22T13:24:28Z</time>
</trkpt>
<trkpt lat="30.7993936" lon="35.6918847">
<ele>1261.3</ele>
<time>2015-11-22T13:26:26Z</time>
</trkpt>
<trkpt lat="30.7986264" lon="35.6943029">
<ele>1288.3</ele>
<time>2015-11-22T13:28:51Z</time>
</trkpt>
<trkpt lat="30.7985206" lon="35.6947229">
<ele>1291.7</ele>
<time>2015-11-22T13:29:10Z</time>
</trkpt>
<trkpt lat="30.7981120" lon="35.6967032">
<ele>1296.1</ele>
<time>2015-11-22T13:30:29Z</time>
</trkpt>
<trkpt lat="30.7980280" lon="35.6969721">
<ele>1295.6</ele>
<time>2015-11-22T13:30:41Z</time>
</trkpt>
<trkpt lat="30.7973878" lon="35.7005766">
<ele>1285.6</ele>
<time>2015-11-22T13:37:55Z</time>
</trkpt>
<trkpt lat="30.7973532" lon="35.7024002">
<ele>1283.5</ele>
<time>2015-11-22T13:38:18Z</time>
</trkpt>
<trkpt lat="30.7969826" lon="35.7039356">
<ele>1284.2</ele>
<time>2015-11-22T13:38:42Z</time>
</trkpt>
<trkpt lat="30.7969727" lon="35.7053511">
<ele>1272.7</ele>
<time>2015-11-22T13:39:36Z</time>
</trkpt>
<trkpt lat="30.7965824" lon="35.7086554">
<ele>1255.5</ele>
<time>2015-11-22T13:40:03Z</time>
</trkpt>
<trkpt lat="30.7962939" lon="35.7108692">
<ele>1264.7</ele>
<time>2015-11-22T13:40:28Z</time>
</trkpt>
<trkpt lat="30.7958329" lon="35.7126788">
<ele>1251.7</ele>
<time>2015-11-22T13:41:44Z</time>
</trkpt>
<trkpt lat="30.7959991" lon="35.7137528">
<ele>1241.2</ele>
<time>2015-11-22T13:41:57Z</time>
</trkpt>
<trkpt lat="30.7971969" lon="35.7151426">
<ele>1232.1</ele>
<time>2015-11-22T13:42:14Z</time>
</trkpt>
<trkpt lat="30.7974414" lon="35.7158072">
<ele>1227.0</ele>
<time>2015-11-22T13:42:20Z</time>
</trkpt>
<trkpt lat="30.7970136" lon="35.7181920">
<ele>1209.7</ele>
<time>2015-11-22T13:42:38Z</time>
</trkpt>
<trkpt lat="30.7962065" lon="35.7204841">
<ele>1193.3</ele>
<time>2015-11-22T13:42:52Z</time>
</trkpt>
<trkpt lat="30.7955728" lon="35.7215930">
<ele>1182.2</ele>
<time>2015-11-22T13:42:59Z</time>
</trkpt>
<trkpt lat="30.7954597" lon="35.7217155">
<ele>1180.8</ele>
<time>2015-11-22T13:43:00Z</time>
</trkpt>
<trkpt lat="30.7936438" lon="35.7236839">
<ele>1167.7</ele>
<time>2015-11-22T13:43:18Z</time>
</trkpt>
<trkpt lat="30.7924676" lon="35.7249485">
<ele>1176.5</ele>
<time>2015-11-22T13:43:36Z</time>
</trkpt>
<trkpt lat="30.7923418" lon="35.7250962">
<ele>1176.1</ele>
<time>2015-11-22T13:43:42Z</time>
</trkpt>
<trkpt lat="30.7843904" lon="35.7321329">
<ele>1183.7</ele>
<time>2015-11-22T13:47:38Z</time>
</trkpt>
<trkpt lat="30.7820751" lon="35.7359298">
<ele>1179.7</ele>
<time>2015-11-22T13:48:56Z</time>
</trkpt>
<trkpt lat="30.7812801" lon="35.7371516">
<ele>1182.4</ele>
<time>2015-11-22T13:49:31Z</time>
</trkpt>
<trkpt lat="30.7792997" lon="35.7362267">
<ele>1190.6</ele>
<time>2015-11-22T13:50:49Z</time>
</trkpt>
<trkpt lat="30.7765910" lon="35.7339864">
<ele>1196.3</ele>
<time>2015-11-22T13:52:25Z</time>
</trkpt>
<trkpt lat="30.7726524" lon="35.7321584">
<ele>1206.0</ele>
<time>2015-11-22T13:54:14Z</time>
</trkpt>
<trkpt lat="30.7724828" lon="35.7320895">
<ele>1206.0</ele>
<time>2015-11-22T13:54:20Z</time>
</trkpt>
<trkpt lat="30.7710360" lon="35.7310730">
<ele>1197.2</ele>
<time>2015-11-22T13:54:54Z</time>
</trkpt>
<trkpt lat="30.7702364" lon="35.7304176">
<ele>1196.8</ele>
<time>2015-11-22T13:55:07Z</time>
</trkpt>
<trkpt lat="30.7676507" lon="35.7292762">
<ele>1199.0</ele>
<time>2015-11-22T13:55:49Z</time>
</trkpt>
<trkpt lat="30.7667191" lon="35.7286002">
<ele>1198.3</ele>
<time>2015-11-22T13:56:08Z</time>
</trkpt>
<trkpt lat="30.7655497" lon="35.7277762">
<ele>1201.4</ele>
<time>2015-11-22T13:56:31Z</time>
</trkpt>
<trkpt lat="30.7637905" lon="35.7261280">
<ele>1204.3</ele>
<time>2015-11-22T13:57:09Z</time>
</trkpt>
<trkpt lat="30.7620417" lon="35.7251505">
<ele>1209.0</ele>
<time>2015-11-22T13:57:51Z</time>
</trkpt>
<trkpt lat="30.7619101" lon="35.7251089">
<ele>1209.5</ele>
<time>2015-11-22T13:57:55Z</time>
</trkpt>
<trkpt lat="30.7587784" lon="35.7253972">
<ele>1223.5</ele>
<time>2015-11-22T13:59:40Z</time>
</trkpt>
<trkpt lat="30.7580868" lon="35.7258775">
<ele>1226.4</ele>
<time>2015-11-22T14:00:04Z</time>
</trkpt>
<trkpt lat="30.7574146" lon="35.7267600">
<ele>1230.6</ele>
<time>2015-11-22T14:00:34Z</time>
</trkpt>
<trkpt lat="30.7570334" lon="35.7271991">
<ele>1230.9</ele>
<time>2015-11-22T14:00:51Z</time>
</trkpt>
<trkpt lat="30.7565553" lon="35.7273537">
<ele>1229.2</ele>
<time>2015-11-22T14:01:05Z</time>
</trkpt>
<trkpt lat="30.7546401" lon="35.7270275">
<ele>1232.5</ele>
<time>2015-11-22T14:02:07Z</time>
</trkpt>
<trkpt lat="30.7531080" lon="35.7262264">
<ele>1232.8</ele>
<time>2015-11-22T14:03:03Z</time>
</trkpt>
<trkpt lat="30.7529154" lon="35.7261073">
<ele>1232.9</ele>
<time>2015-11-22T14:03:11Z</time>
</trkpt>
<trkpt lat="30.7508294" lon="35.7248143">
<ele>1240.8</ele>
<time>2015-11-22T14:04:31Z</time>
</trkpt>
<trkpt lat="30.7492942" lon="35.7233409">
<ele>1243.0</ele>
<time>2015-11-22T14:05:25Z</time>
</trkpt>
<trkpt lat="30.7488266" lon="35.7231356">
<ele>1243.5</ele>
<time>2015-11-22T14:05:37Z</time>
</trkpt>
<trkpt lat="30.7459237" lon="35.7230216">
<ele>1253.1</ele>
<time>2015-11-22T14:07:00Z</time>
</trkpt>
<trkpt lat="30.7446952" lon="35.7237155">
<ele>1258.1</ele>
<time>2015-11-22T14:07:47Z</time>
</trkpt>
<trkpt lat="30.7429055" lon="35.7237980">
<ele>1263.8</ele>
<time>2015-11-22T14:08:49Z</time>
</trkpt>
<trkpt lat="30.7425317" lon="35.7237954">
<ele>1264.1</ele>
<time>2015-11-22T14:09:01Z</time>
</trkpt>
<trkpt lat="30.7375192" lon="35.7225246">
<ele>1272.5</ele>
<time>2015-11-22T14:11:39Z</time>
</trkpt>
<trkpt lat="30.7341233" lon="35.7230359">
<ele>1279.4</ele>
<time>2015-11-22T14:13:21Z</time>
</trkpt>
<trkpt lat="30.7332281" lon="35.7228519">
<ele>1279.4</ele>
<time>2015-11-22T14:13:47Z</time>
</trkpt>
<trkpt lat="30.7323132" lon="35.7228068">
<ele>1283.6</ele>
<time>2015-11-22T14:14:13Z</time>
</trkpt>
<trkpt lat="30.7306871" lon="35.7232555">
<ele>1292.9</ele>
<time>2015-11-22T14:15:07Z</time>
</trkpt>
<trkpt lat="30.7297486" lon="35.7235069">
<ele>1295.2</ele>
<time>2015-11-22T14:15:41Z</time>
</trkpt>
<trkpt lat="30.7290948" lon="35.7234904">
<ele>1295.9</ele>
<time>2015-11-22T14:16:05Z</time>
</trkpt>
<trkpt lat="30.7274593" lon="35.7230496">
<ele>1300.5</ele>
<time>2015-11-22T14:34:50Z</time>
</trkpt>
<trkpt lat="30.7259592" lon="35.7213521">
<ele>1301.1</ele>
<time>2015-11-22T14:36:04Z</time>
</trkpt>
<trkpt lat="30.7257004" lon="35.7211253">
<ele>1301.3</ele>
<time>2015-11-22T14:36:12Z</time>
</trkpt>
<trkpt lat="30.7254097" lon="35.7209457">
<ele>1304.6</ele>
<time>2015-11-22T14:36:20Z</time>
</trkpt>
<trkpt lat="30.7228493" lon="35.7202780">
<ele>1311.8</ele>
<time>2015-11-22T14:37:23Z</time>
</trkpt>
<trkpt lat="30.7215326" lon="35.7195876">
<ele>1313.2</ele>
<time>2015-11-22T14:37:56Z</time>
</trkpt>
<trkpt lat="30.7195265" lon="35.7190407">
<ele>1321.1</ele>
<time>2015-11-22T14:38:48Z</time>
</trkpt>
<trkpt lat="30.7174845" lon="35.7176483">
<ele>1327.5</ele>
<time>2015-11-22T14:39:59Z</time>
</trkpt>
<trkpt lat="30.7173581" lon="35.7175251">
<ele>1327.8</ele>
<time>2015-11-22T14:40:03Z</time>
</trkpt>
<trkpt lat="30.7150628" lon="35.7146953">
<ele>1350.3</ele>
<time>2015-11-22T14:42:47Z</time>
</trkpt>
<trkpt lat="30.7145482" lon="35.7140104">
<ele>1363.4</ele>
<time>2015-11-22T14:44:14Z</time>
</trkpt>
<trkpt lat="30.7129257" lon="35.7128562">
<ele>1388.9</ele>
<time>2015-11-22T14:47:49Z</time>
</trkpt>
<trkpt lat="30.7119599" lon="35.7108528">
<ele>1411.4</ele>
<time>2015-11-22T14:51:20Z</time>
</trkpt>
<trkpt lat="30.7120292" lon="35.7087695">
<ele>1437.1</ele>
<time>2015-11-22T14:55:13Z</time>
</trkpt>
<trkpt lat="30.7117145" lon="35.7085256">
<ele>1443.1</ele>
<time>2015-11-22T14:55:56Z</time>
</trkpt>
<trkpt lat="30.7102337" lon="35.7077266">
<ele>1458.6</ele>
<time>2015-11-22T15:04:10Z</time>
</trkpt>
<trkpt lat="30.7099727" lon="35.7071940">
<ele>1464.3</ele>
<time>2015-11-22T15:04:43Z</time>
</trkpt>
<trkpt lat="30.7099556" lon="35.7058147">
<ele>1471.3</ele>
<time>2015-11-22T15:05:46Z</time>
</trkpt>
<trkpt lat="30.7099630" lon="35.7033222">
<ele>1463.0</ele>
<time>2015-11-22T15:08:32Z</time>
</trkpt>
<trkpt lat="30.7099253" lon="35.7004107">
<ele>1463.3</ele>
<time>2015-11-22T15:09:09Z</time>
</trkpt>
<trkpt lat="30.7098842" lon="35.6995382">
<ele>1468.8</ele>
<time>2015-11-22T15:09:23Z</time>
</trkpt>
<trkpt lat="30.7096620" lon="35.6982944">
<ele>1475.6</ele>
<time>2015-11-22T15:09:58Z</time>
</trkpt>
<trkpt lat="30.7089315" lon="35.6950424">
<ele>1468.8</ele>
<time>2015-11-22T15:10:42Z</time>
</trkpt>
<trkpt lat="30.7089411" lon="35.6947077">
<ele>1467.5</ele>
<time>2015-11-22T15:10:45Z</time>
</trkpt>
<trkpt lat="30.7091535" lon="35.6930131">
<ele>1476.1</ele>
<time>2015-11-22T15:11:16Z</time>
</trkpt>
<trkpt lat="30.7091069" lon="35.6908328">
<ele>1468.8</ele>
<time>2015-11-22T15:11:40Z</time>
</trkpt>
<trkpt lat="30.7091095" lon="35.6897341">
<ele>1477.1</ele>
<time>2015-11-22T15:11:54Z</time>
</trkpt>
<trkpt lat="30.7094659" lon="35.6869222">
<ele>1499.9</ele>
<time>2015-11-22T15:14:08Z</time>
</trkpt>
<trkpt lat="30.7098058" lon="35.6858520">
<ele>1504.5</ele>
<time>2015-11-22T15:15:01Z</time>
</trkpt>
<trkpt lat="30.7100569" lon="35.6849892">
<ele>1503.0</ele>
<time>2015-11-22T15:15:36Z</time>
</trkpt>
<trkpt lat="30.7102224" lon="35.6834552">
<ele>1496.2</ele>
<time>2015-11-22T15:15:59Z</time>
</trkpt>
<trkpt lat="30.7102553" lon="35.6833536">
<ele>1495.9</ele>
<time>2015-11-22T15:16:00Z</time>
</trkpt>
<trkpt lat="30.7116216" lon="35.6797297">
<ele>1461.9</ele>
<time>2015-11-22T15:16:26Z</time>
</trkpt>
<trkpt lat="30.7116628" lon="35.6790516">
<ele>1460.8</ele>
<time>2015-11-22T15:16:30Z</time>
</trkpt>
<trkpt lat="30.7117729" lon="35.6771198">
<ele>1470.5</ele>
<time>2015-11-22T15:16:49Z</time>
</trkpt>
<trkpt lat="30.7104556" lon="35.6770680">
<ele>1473.9</ele>
<time>2015-11-22T15:17:42Z</time>
</trkpt>
<trkpt lat="30.7081439" lon="35.6772727">
<ele>1480.8</ele>
<time>2015-11-22T15:19:16Z</time>
</trkpt>
<trkpt lat="30.7059730" lon="35.6775234">
<ele>1489.1</ele>
<time>2015-11-22T15:20:14Z</time>
</trkpt>
<trkpt lat="30.7058008" lon="35.6775690">
<ele>1489.8</ele>
<time>2015-11-22T15:20:20Z</time>
</trkpt>
<trkpt lat="30.7032423" lon="35.6781610">
<ele>1508.5</ele>
<time>2015-11-22T15:22:31Z</time>
</trkpt>
<trkpt lat="30.7014882" lon="35.6781713">
<ele>1517.7</ele>
<time>2015-11-22T15:27:21Z</time>
</trkpt>
<trkpt lat="30.7004181" lon="35.6776827">
<ele>1522.9</ele>
<time>2015-11-22T15:28:12Z</time>
</trkpt>
<trkpt lat="30.6998439" lon="35.6770444">
<ele>1527.3</ele>
<time>2015-11-22T15:28:48Z</time>
</trkpt>
<trkpt lat="30.6993102" lon="35.6765685">
<ele>1521.0</ele>
<time>2015-11-22T15:29:18Z</time>
</trkpt>
<trkpt lat="30.6985441" lon="35.6761190">
<ele>1508.8</ele>
<time>2015-11-22T15:29:39Z</time>
</trkpt>
<trkpt lat="30.6970984" lon="35.6757427">
<ele>1487.8</ele>
<time>2015-11-22T15:30:06Z</time>
</trkpt>
<trkpt lat="30.6968816" lon="35.6756969">
<ele>1489.8</ele>
<time>2015-11-22T15:30:09Z</time>
</trkpt>
<trkpt lat="30.6961445" lon="35.6756789">
<ele>1494.8</ele>
<time>2015-11-22T15:30:20Z</time>
</trkpt>
<trkpt lat="30.6955793" lon="35.6759399">
<ele>1500.1</ele>
<time>2015-11-22T15:30:51Z</time>
</trkpt>
<trkpt lat="30.6929559" lon="35.6780929">
<ele>1525.0</ele>
<time>2015-11-22T15:34:13Z</time>
</trkpt>
<trkpt lat="30.6916340" lon="35.6795878">
<ele>1537.5</ele>
<time>2015-11-22T15:36:11Z</time>
</trkpt>
<trkpt lat="30.6909566" lon="35.6804621">
<ele>1533.6</ele>
<time>2015-11-22T15:39:03Z</time>
</trkpt>
<trkpt lat="30.6905162" lon="35.6810528">
<ele>1521.1</ele>
<time>2015-11-22T15:39:13Z</time>
</trkpt>
<trkpt lat="30.6900968" lon="35.6814817">
<ele>1517.4</ele>
<time>2015-11-22T15:39:19Z</time>
</trkpt>
<trkpt lat="30.6887384" lon="35.6821518">
<ele>1504.7</ele>
<time>2015-11-22T15:39:40Z</time>
</trkpt>
<trkpt lat="30.6877141" lon="35.6832650">
<ele>1493.2</ele>
<time>2015-11-22T15:40:17Z</time>
</trkpt>
<trkpt lat="30.6865150" lon="35.6841060">
<ele>1476.7</ele>
<time>2015-11-22T15:40:32Z</time>
</trkpt>
<trkpt lat="30.6857598" lon="35.6841004">
<ele>1469.2</ele>
<time>2015-11-22T15:40:39Z</time>
</trkpt>
<trkpt lat="30.6855235" lon="35.6840613">
<ele>1467.7</ele>
<time>2015-11-22T15:40:41Z</time>
</trkpt>
<trkpt lat="30.6850887" lon="35.6836376">
<ele>1464.6</ele>
<time>2015-11-22T15:40:47Z</time>
</trkpt>
<trkpt lat="30.6845947" lon="35.6828035">
<ele>1461.1</ele>
<time>2015-11-22T15:40:55Z</time>
</trkpt>
<trkpt lat="30.6843594" lon="35.6823502">
<ele>1460.1</ele>
<time>2015-11-22T15:40:59Z</time>
</trkpt>
<trkpt lat="30.6838308" lon="35.6810498">
<ele>1457.7</ele>
<time>2015-11-22T15:41:10Z</time>
</trkpt>
<trkpt lat="30.6831832" lon="35.6787058">
<ele>1452.0</ele>
<time>2015-11-22T15:41:30Z</time>
</trkpt>
<trkpt lat="30.6817681" lon="35.6768947">
<ele>1447.4</ele>
<time>2015-11-22T15:41:52Z</time>
</trkpt>
<trkpt lat="30.6784053" lon="35.6740432">
<ele>1438.0</ele>
<time>2015-11-22T15:42:36Z</time>
</trkpt>
<trkpt lat="30.6757170" lon="35.6724223">
<ele>1434.3</ele>
<time>2015-11-22T15:43:07Z</time>
</trkpt>
<trkpt lat="30.6739751" lon="35.6710930">
<ele>1432.6</ele>
<time>2015-11-22T15:43:30Z</time>
</trkpt>
<trkpt lat="30.6734805" lon="35.6706318">
<ele>1431.3</ele>
<time>2015-11-22T15:43:38Z</time>
</trkpt>
<trkpt lat="30.6708238" lon="35.6679922">
<ele>1432.5</ele>
<time>2015-11-22T15:44:20Z</time>
</trkpt>
<trkpt lat="30.6684907" lon="35.6656646">
<ele>1461.1</ele>
<time>2015-11-22T15:46:36Z</time>
</trkpt>
<trkpt lat="30.6674779" lon="35.6653820">
<ele>1461.3</ele>
<time>2015-11-22T15:47:16Z</time>
</trkpt>
<trkpt lat="30.6676885" lon="35.6641384">
<ele>1459.4</ele>
<time>2015-11-22T15:47:49Z</time>
</trkpt>
<trkpt lat="30.6693505" lon="35.6627146">
<ele>1463.1</ele>
<time>2015-11-22T15:57:55Z</time>
</trkpt>
<trkpt lat="30.6693717" lon="35.6624646">
<ele>1464.1</ele>
<time>2015-11-22T15:58:03Z</time>
</trkpt>
<trkpt lat="30.6692036" lon="35.6625059">
<ele>1464.0</ele>
<time>2015-11-22T15:58:08Z</time>
</trkpt>
<trkpt lat="30.6681264" lon="35.6631905">
<ele>1459.6</ele>
<time>2015-11-22T15:58:27Z</time>
</trkpt>
<trkpt lat="30.6666938" lon="35.6636101">
<ele>1449.2</ele>
<time>2015-11-22T15:58:44Z</time>
</trkpt>
<trkpt lat="30.6643972" lon="35.6638870">
<ele>1431.8</ele>
<time>2015-11-22T15:59:05Z</time>
</trkpt>
<trkpt lat="30.6627547" lon="35.6638411">
<ele>1421.7</ele>
<time>2015-11-22T15:59:19Z</time>
</trkpt>
<trkpt lat="30.6623969" lon="35.6637861">
<ele>1419.9</ele>
<time>2015-11-22T15:59:22Z</time>
</trkpt>
<trkpt lat="30.6601835" lon="35.6631610">
<ele>1411.6</ele>
<time>2015-11-22T15:59:42Z</time>
</trkpt>
<trkpt lat="30.6557852" lon="35.6609478">
<ele>1401.7</ele>
<time>2015-11-22T16:00:34Z</time>
</trkpt>
<trkpt lat="30.6554235" lon="35.6590275">
<ele>1405.7</ele>
<time>2015-11-22T16:01:19Z</time>
</trkpt>
<trkpt lat="30.6550820" lon="35.6581636">
<ele>1408.1</ele>
<time>2015-11-22T16:01:41Z</time>
</trkpt>
<trkpt lat="30.6552936" lon="35.6562242">
<ele>1419.0</ele>
<time>2015-11-22T16:02:57Z</time>
</trkpt>
<trkpt lat="30.6554841" lon="35.6556765">
<ele>1419.9</ele>
<time>2015-11-22T16:03:20Z</time>
</trkpt>
<trkpt lat="30.6553997" lon="35.6548770">
<ele>1421.1</ele>
<time>2015-11-22T16:03:51Z</time>
</trkpt>
<trkpt lat="30.6556492" lon="35.6541500">
<ele>1422.6</ele>
<time>2015-11-22T16:04:15Z</time>
</trkpt>
<trkpt lat="30.6561382" lon="35.6524931">
<ele>1419.8</ele>
<time>2015-11-22T16:04:58Z</time>
</trkpt>
<trkpt lat="30.6561559" lon="35.6510621">
<ele>1420.4</ele>
<time>2015-11-22T16:05:44Z</time>
</trkpt>
<trkpt lat="30.6566159" lon="35.6474137">
<ele>1411.1</ele>
<time>2015-11-22T16:08:27Z</time>
</trkpt>
<trkpt lat="30.6569064" lon="35.6456386">
<ele>1418.2</ele>
<time>2015-11-22T16:09:38Z</time>
</trkpt>
<trkpt lat="30.6570886" lon="35.6444668">
<ele>1411.1</ele>
<time>2015-11-22T16:10:07Z</time>
</trkpt>
<trkpt lat="30.6578144" lon="35.6430540">
<ele>1403.9</ele>
<time>2015-11-22T16:10:37Z</time>
</trkpt>
<trkpt lat="30.6580395" lon="35.6422109">
<ele>1405.7</ele>
<time>2015-11-22T16:10:57Z</time>
</trkpt>
<trkpt lat="30.6576840" lon="35.6416884">
<ele>1405.4</ele>
<time>2015-11-22T16:11:18Z</time>
</trkpt>
<trkpt lat="30.6561160" lon="35.6396190">
<ele>1428.1</ele>
<time>2015-11-22T16:18:35Z</time>
</trkpt>
<trkpt lat="30.6545984" lon="35.6382268">
<ele>1441.6</ele>
<time>2015-11-22T16:20:20Z</time>
</trkpt>
<trkpt lat="30.6546267" lon="35.6373674">
<ele>1447.6</ele>
<time>2015-11-22T16:21:29Z</time>
</trkpt>
<trkpt lat="30.6549700" lon="35.6368374">
<ele>1449.6</ele>
<time>2015-11-22T16:21:59Z</time>
</trkpt>
<trkpt lat="30.6552088" lon="35.6357389">
<ele>1460.9</ele>
<time>2015-11-22T16:23:10Z</time>
</trkpt>
<trkpt lat="30.6551758" lon="35.6356954">
<ele>1461.2</ele>
<time>2015-11-22T16:23:15Z</time>
</trkpt>
<trkpt lat="30.6541401" lon="35.6353459">
<ele>1454.9</ele>
<time>2015-11-22T16:23:57Z</time>
</trkpt>
<trkpt lat="30.6544524" lon="35.6349298">
<ele>1456.1</ele>
<time>2015-11-22T16:24:19Z</time>
</trkpt>
<trkpt lat="30.6554440" lon="35.6332418">
<ele>1469.7</ele>
<time>2015-11-22T16:26:55Z</time>
</trkpt>
<trkpt lat="30.6554367" lon="35.6328989">
<ele>1470.4</ele>
<time>2015-11-22T16:27:07Z</time>
</trkpt>
<trkpt lat="30.6549716" lon="35.6323086">
<ele>1470.3</ele>
<time>2015-11-22T16:27:34Z</time>
</trkpt>
<trkpt lat="30.6551357" lon="35.6317166">
<ele>1473.1</ele>
<time>2015-11-22T16:28:12Z</time>
</trkpt>
<trkpt lat="30.6556390" lon="35.6298738">
<ele>1493.9</ele>
<time>2015-11-22T16:30:13Z</time>
</trkpt>
<trkpt lat="30.6557774" lon="35.6292856">
<ele>1494.6</ele>
<time>2015-11-22T16:30:46Z</time>
</trkpt>
<trkpt lat="30.6565328" lon="35.6278099">
<ele>1497.3</ele>
<time>2015-11-22T16:35:51Z</time>
</trkpt>
<trkpt lat="30.6581884" lon="35.6248125">
<ele>1528.2</ele>
<time>2015-11-22T16:39:11Z</time>
</trkpt>
<trkpt lat="30.6592060" lon="35.6232601">
<ele>1545.1</ele>
<time>2015-11-22T16:41:15Z</time>
</trkpt>
<trkpt lat="30.6592633" lon="35.6228325">
<ele>1546.3</ele>
<time>2015-11-22T16:42:21Z</time>
</trkpt>
<trkpt lat="30.6593131" lon="35.6221862">
<ele>1544.4</ele>
<time>2015-11-22T16:42:34Z</time>
</trkpt>
<trkpt lat="30.6599970" lon="35.6206655">
<ele>1532.4</ele>
<time>2015-11-22T16:42:55Z</time>
</trkpt>
<trkpt lat="30.6601709" lon="35.6201776">
<ele>1525.5</ele>
<time>2015-11-22T16:43:01Z</time>
</trkpt>
<trkpt lat="30.6605801" lon="35.6182770">
<ele>1498.4</ele>
<time>2015-11-22T16:43:21Z</time>
</trkpt>
<trkpt lat="30.6610090" lon="35.6174444">
<ele>1488.2</ele>
<time>2015-11-22T16:43:31Z</time>
</trkpt>
<trkpt lat="30.6611002" lon="35.6173500">
<ele>1488.2</ele>
<time>2015-11-22T16:43:34Z</time>
</trkpt>
<trkpt lat="30.6614370" lon="35.6172473">
<ele>1488.6</ele>
<time>2015-11-22T16:43:43Z</time>
</trkpt>
<trkpt lat="30.6625613" lon="35.6175085">
<ele>1481.8</ele>
<time>2015-11-22T16:44:04Z</time>
</trkpt>
<trkpt lat="30.6642485" lon="35.6166267">
<ele>1469.2</ele>
<time>2015-11-22T16:44:31Z</time>
</trkpt>
<trkpt lat="30.6648920" lon="35.6165686">
<ele>1467.8</ele>
<time>2015-11-22T16:44:43Z</time>
</trkpt>
<trkpt lat="30.6654665" lon="35.6165217">
<ele>1459.0</ele>
<time>2015-11-22T16:44:55Z</time>
</trkpt>
<trkpt lat="30.6656225" lon="35.6164272">
<ele>1452.7</ele>
<time>2015-11-22T16:44:58Z</time>
</trkpt>
<trkpt lat="30.6660120" lon="35.6159961">
<ele>1428.4</ele>
<time>2015-11-22T16:45:06Z</time>
</trkpt>
<trkpt lat="30.6669145" lon="35.6145581">
<ele>1414.7</ele>
<time>2015-11-22T16:45:26Z</time>
</trkpt>
<trkpt lat="30.6681236" lon="35.6138854">
<ele>1401.4</ele>
<time>2015-11-22T16:45:47Z</time>
</trkpt>
<trkpt lat="30.6684098" lon="35.6136846">
<ele>1388.9</ele>
<time>2015-11-22T16:45:51Z</time>
</trkpt>
<trkpt lat="30.6686052" lon="35.6134602">
<ele>1375.6</ele>
<time>2015-11-22T16:45:54Z</time>
</trkpt>
<trkpt lat="30.6695251" lon="35.6124642">
<ele>1351.8</ele>
<time>2015-11-22T16:46:06Z</time>
</trkpt>
<trkpt lat="30.6702543" lon="35.6117009">
<ele>1351.3</ele>
<time>2015-11-22T16:46:18Z</time>
</trkpt>
<trkpt lat="30.6704740" lon="35.6114653">
<ele>1347.7</ele>
<time>2015-11-22T16:46:22Z</time>
</trkpt>
<trkpt lat="30.6709484" lon="35.6106257">
<ele>1334.4</ele>
<time>2015-11-22T16:46:34Z</time>
</trkpt>
<trkpt lat="30.6715156" lon="35.6103104">
<ele>1329.2</ele>
<time>2015-11-22T16:46:52Z</time>
</trkpt>
<trkpt lat="30.6717871" lon="35.6102621">
<ele>1323.3</ele>
<time>2015-11-22T16:47:00Z</time>
</trkpt>
<trkpt lat="30.6720375" lon="35.6104354">
<ele>1318.5</ele>
<time>2015-11-22T16:47:08Z</time>
</trkpt>
<trkpt lat="30.6720794" lon="35.6105110">
<ele>1317.6</ele>
<time>2015-11-22T16:47:10Z</time>
</trkpt>
<trkpt lat="30.6723888" lon="35.6118081">
<ele>1310.6</ele>
<time>2015-11-22T16:48:13Z</time>
</trkpt>
<trkpt lat="30.6727656" lon="35.6122214">
<ele>1305.5</ele>
<time>2015-11-22T16:48:24Z</time>
</trkpt>
<trkpt lat="30.6735302" lon="35.6127436">
<ele>1298.6</ele>
<time>2015-11-22T16:48:38Z</time>
</trkpt>
<trkpt lat="30.6745946" lon="35.6128710">
<ele>1294.1</ele>
<time>2015-11-22T16:48:56Z</time>
</trkpt>
<trkpt lat="30.6746579" lon="35.6128588">
<ele>1293.2</ele>
<time>2015-11-22T16:48:58Z</time>
</trkpt>
<trkpt lat="30.6740903" lon="35.6123752">
<ele>1278.4</ele>
<time>2015-11-22T16:49:14Z</time>
</trkpt>
<trkpt lat="30.6738491" lon="35.6117168">
<ele>1275.4</ele>
<time>2015-11-22T16:49:26Z</time>
</trkpt>
<trkpt lat="30.6747271" lon="35.6106820">
<ele>1246.9</ele>
<time>2015-11-22T16:50:11Z</time>
</trkpt>
<trkpt lat="30.6746308" lon="35.6104515">
<ele>1247.0</ele>
<time>2015-11-22T16:52:00Z</time>
</trkpt>
</trkseg>
</trk>
</gpx>